<?xml version="1.0" encoding="utf-8"?>
<gpx xmlns:xsi="http://www.w3.org/2001/XMLSchema-instance" xmlns:xsd="http://www.w3.org/2001/XMLSchema" version="1.1" creator="Shapelink.com" xmlns="http://www.topografix.com/GPX/1/1" xmlns:gpxtpx="http://www.garmin.com/xmlschemas/TrackPointExtension/v1">
  <metadata>
    <name>Løping 2.62 km, 2013-04-22</name>
    <desc></desc>
    <author><name>Mikael Blom</name></author> 
    <time>2013-04-22T16:30:21Z</time>
  </metadata>
  <trk>
    <name>Løping 2.62 km, 2013-04-22</name>
    <trkseg>
      <trkpt lat="59.9547085" lon="17.7146482">
        <ele>40.0321</ele>
        <time>2013-04-22T16:30:21Z</time>
      </trkpt>
      <trkpt lat="59.9546987" lon="17.7146158">
        <ele>40.5128</ele>
        <time>2013-04-22T16:30:22Z</time>
      </trkpt>
      <trkpt lat="59.9546823" lon="17.7145695">
        <ele>40.5128</ele>
        <time>2013-04-22T16:30:23Z</time>
      </trkpt>
      <trkpt lat="59.9546663" lon="17.7145229">
        <ele>40.5128</ele>
        <time>2013-04-22T16:30:24Z</time>
      </trkpt>
      <trkpt lat="59.9546482" lon="17.7144842">
        <ele>40.9934</ele>
        <time>2013-04-22T16:30:25Z</time>
      </trkpt>
      <trkpt lat="59.9546295" lon="17.7144442">
        <ele>40.9934</ele>
        <time>2013-04-22T16:30:26Z</time>
      </trkpt>
      <trkpt lat="59.9546083" lon="17.7144038">
        <ele>41.474</ele>
        <time>2013-04-22T16:30:27Z</time>
      </trkpt>
      <trkpt lat="59.9545901" lon="17.7143721">
        <ele>41.9547</ele>
        <time>2013-04-22T16:30:28Z</time>
      </trkpt>
      <trkpt lat="59.9545713" lon="17.7143353">
        <ele>41.9547</ele>
        <time>2013-04-22T16:30:29Z</time>
      </trkpt>
      <trkpt lat="59.9545481" lon="17.7142801">
        <ele>41.9547</ele>
        <time>2013-04-22T16:30:30Z</time>
      </trkpt>
      <trkpt lat="59.9545317" lon="17.7142277">
        <ele>41.9547</ele>
        <time>2013-04-22T16:30:31Z</time>
      </trkpt>
      <trkpt lat="59.9545195" lon="17.7141977">
        <ele>41.474</ele>
        <time>2013-04-22T16:30:32Z</time>
      </trkpt>
      <trkpt lat="59.9545042" lon="17.7141728">
        <ele>41.474</ele>
        <time>2013-04-22T16:30:33Z</time>
      </trkpt>
      <trkpt lat="59.9544874" lon="17.7141469">
        <ele>41.474</ele>
        <time>2013-04-22T16:30:34Z</time>
      </trkpt>
      <trkpt lat="59.9544723" lon="17.7141252">
        <ele>41.474</ele>
        <time>2013-04-22T16:30:35Z</time>
      </trkpt>
      <trkpt lat="59.9544585" lon="17.7141075">
        <ele>40.9934</ele>
        <time>2013-04-22T16:30:36Z</time>
      </trkpt>
      <trkpt lat="59.954442" lon="17.7140898">
        <ele>40.5128</ele>
        <time>2013-04-22T16:30:37Z</time>
      </trkpt>
      <trkpt lat="59.9544218" lon="17.7140743">
        <ele>40.5128</ele>
        <time>2013-04-22T16:30:38Z</time>
      </trkpt>
      <trkpt lat="59.954404" lon="17.7140526">
        <ele>40.5128</ele>
        <time>2013-04-22T16:30:39Z</time>
      </trkpt>
      <trkpt lat="59.9543886" lon="17.7140302">
        <ele>40.0321</ele>
        <time>2013-04-22T16:30:40Z</time>
      </trkpt>
      <trkpt lat="59.9543752" lon="17.7140198">
        <ele>40.0321</ele>
        <time>2013-04-22T16:30:41Z</time>
      </trkpt>
      <trkpt lat="59.9543594" lon="17.7140079">
        <ele>40.0321</ele>
        <time>2013-04-22T16:30:42Z</time>
      </trkpt>
      <trkpt lat="59.9543435" lon="17.7139831">
        <ele>40.0321</ele>
        <time>2013-04-22T16:30:43Z</time>
      </trkpt>
      <trkpt lat="59.954328" lon="17.7139459">
        <ele>40.0321</ele>
        <time>2013-04-22T16:30:44Z</time>
      </trkpt>
      <trkpt lat="59.9543149" lon="17.7139111">
        <ele>40.0321</ele>
        <time>2013-04-22T16:30:45Z</time>
      </trkpt>
      <trkpt lat="59.9543" lon="17.7138846">
        <ele>40.0321</ele>
        <time>2013-04-22T16:30:46Z</time>
      </trkpt>
      <trkpt lat="59.954284" lon="17.7138527">
        <ele>40.0321</ele>
        <time>2013-04-22T16:30:47Z</time>
      </trkpt>
      <trkpt lat="59.9542677" lon="17.7138221">
        <ele>40.0321</ele>
        <time>2013-04-22T16:30:48Z</time>
      </trkpt>
      <trkpt lat="59.9542488" lon="17.7137967">
        <ele>40.0321</ele>
        <time>2013-04-22T16:30:49Z</time>
      </trkpt>
      <trkpt lat="59.9542286" lon="17.7137661">
        <ele>40.0321</ele>
        <time>2013-04-22T16:30:50Z</time>
      </trkpt>
      <trkpt lat="59.9542083" lon="17.7137355">
        <ele>40.0321</ele>
        <time>2013-04-22T16:30:51Z</time>
      </trkpt>
      <trkpt lat="59.9541865" lon="17.7137007">
        <ele>40.0321</ele>
        <time>2013-04-22T16:30:52Z</time>
      </trkpt>
      <trkpt lat="59.9541633" lon="17.713663">
        <ele>39.5513</ele>
        <time>2013-04-22T16:30:53Z</time>
      </trkpt>
      <trkpt lat="59.9541401" lon="17.7136371">
        <ele>39.0707</ele>
        <time>2013-04-22T16:30:54Z</time>
      </trkpt>
      <trkpt lat="59.9541172" lon="17.71361">
        <ele>38.5901</ele>
        <time>2013-04-22T16:30:55Z</time>
      </trkpt>
      <trkpt lat="59.9540949" lon="17.7135829">
        <ele>38.1094</ele>
        <time>2013-04-22T16:30:56Z</time>
      </trkpt>
      <trkpt lat="59.9540729" lon="17.7135642">
        <ele>38.1094</ele>
        <time>2013-04-22T16:30:57Z</time>
      </trkpt>
      <trkpt lat="59.9540505" lon="17.7135445">
        <ele>37.6287</ele>
        <time>2013-04-22T16:30:58Z</time>
      </trkpt>
      <trkpt lat="59.9540306" lon="17.7135122">
        <ele>37.1481</ele>
        <time>2013-04-22T16:30:59Z</time>
      </trkpt>
      <trkpt lat="59.9540193" lon="17.7134824">
        <ele>37.6287</ele>
        <time>2013-04-22T16:31:00Z</time>
      </trkpt>
      <trkpt lat="59.9540069" lon="17.7134652">
        <ele>37.6287</ele>
        <time>2013-04-22T16:31:01Z</time>
      </trkpt>
      <trkpt lat="59.9539913" lon="17.7134507">
        <ele>37.6287</ele>
        <time>2013-04-22T16:31:02Z</time>
      </trkpt>
      <trkpt lat="59.9539719" lon="17.713442">
        <ele>38.1094</ele>
        <time>2013-04-22T16:31:03Z</time>
      </trkpt>
      <trkpt lat="59.9539524" lon="17.7134342">
        <ele>38.5901</ele>
        <time>2013-04-22T16:31:04Z</time>
      </trkpt>
      <trkpt lat="59.953932" lon="17.7134118">
        <ele>38.5901</ele>
        <time>2013-04-22T16:31:05Z</time>
      </trkpt>
      <trkpt lat="59.9539109" lon="17.7133916">
        <ele>39.0707</ele>
        <time>2013-04-22T16:31:06Z</time>
      </trkpt>
      <trkpt lat="59.9538913" lon="17.7133765">
        <ele>40.0321</ele>
        <time>2013-04-22T16:31:07Z</time>
      </trkpt>
      <trkpt lat="59.9538736" lon="17.7133678">
        <ele>40.5128</ele>
        <time>2013-04-22T16:31:08Z</time>
      </trkpt>
      <trkpt lat="59.9538524" lon="17.7133481">
        <ele>40.9934</ele>
        <time>2013-04-22T16:31:09Z</time>
      </trkpt>
      <trkpt lat="59.9538303" lon="17.713318">
        <ele>40.9934</ele>
        <time>2013-04-22T16:31:10Z</time>
      </trkpt>
      <trkpt lat="59.9538126" lon="17.713289">
        <ele>41.474</ele>
        <time>2013-04-22T16:31:11Z</time>
      </trkpt>
      <trkpt lat="59.9537958" lon="17.7132626">
        <ele>40.9934</ele>
        <time>2013-04-22T16:31:12Z</time>
      </trkpt>
      <trkpt lat="59.9537825" lon="17.7132294">
        <ele>41.474</ele>
        <time>2013-04-22T16:31:13Z</time>
      </trkpt>
      <trkpt lat="59.9537731" lon="17.7132044">
        <ele>41.9547</ele>
        <time>2013-04-22T16:31:14Z</time>
      </trkpt>
      <trkpt lat="59.9537628" lon="17.713186">
        <ele>42.4354</ele>
        <time>2013-04-22T16:31:15Z</time>
      </trkpt>
      <trkpt lat="59.95375" lon="17.7131574">
        <ele>42.4354</ele>
        <time>2013-04-22T16:31:16Z</time>
      </trkpt>
      <trkpt lat="59.9537348" lon="17.7131328">
        <ele>42.916</ele>
        <time>2013-04-22T16:31:17Z</time>
      </trkpt>
      <trkpt lat="59.9537209" lon="17.713113">
        <ele>42.916</ele>
        <time>2013-04-22T16:31:18Z</time>
      </trkpt>
      <trkpt lat="59.9537054" lon="17.713085">
        <ele>43.3966</ele>
        <time>2013-04-22T16:31:19Z</time>
      </trkpt>
      <trkpt lat="59.9536902" lon="17.7130565">
        <ele>42.916</ele>
        <time>2013-04-22T16:31:20Z</time>
      </trkpt>
      <trkpt lat="59.9536753" lon="17.7130321">
        <ele>42.916</ele>
        <time>2013-04-22T16:31:21Z</time>
      </trkpt>
      <trkpt lat="59.9536624" lon="17.71302">
        <ele>42.916</ele>
        <time>2013-04-22T16:31:22Z</time>
      </trkpt>
      <trkpt lat="59.9536473" lon="17.713015">
        <ele>43.3966</ele>
        <time>2013-04-22T16:31:23Z</time>
      </trkpt>
      <trkpt lat="59.9536292" lon="17.7130115">
        <ele>43.8773</ele>
        <time>2013-04-22T16:31:24Z</time>
      </trkpt>
      <trkpt lat="59.9536104" lon="17.7130138">
        <ele>44.358</ele>
        <time>2013-04-22T16:31:25Z</time>
      </trkpt>
      <trkpt lat="59.95359" lon="17.7130278">
        <ele>44.358</ele>
        <time>2013-04-22T16:31:26Z</time>
      </trkpt>
      <trkpt lat="59.9535665" lon="17.7130436">
        <ele>44.358</ele>
        <time>2013-04-22T16:31:27Z</time>
      </trkpt>
      <trkpt lat="59.9535416" lon="17.7130544">
        <ele>44.358</ele>
        <time>2013-04-22T16:31:28Z</time>
      </trkpt>
      <trkpt lat="59.9535182" lon="17.7130669">
        <ele>44.358</ele>
        <time>2013-04-22T16:31:29Z</time>
      </trkpt>
      <trkpt lat="59.9534977" lon="17.7130892">
        <ele>44.358</ele>
        <time>2013-04-22T16:31:30Z</time>
      </trkpt>
      <trkpt lat="59.9534759" lon="17.7131094">
        <ele>44.8386</ele>
        <time>2013-04-22T16:31:31Z</time>
      </trkpt>
      <trkpt lat="59.9534537" lon="17.7131244">
        <ele>44.8386</ele>
        <time>2013-04-22T16:31:32Z</time>
      </trkpt>
      <trkpt lat="59.9534324" lon="17.7131358">
        <ele>44.8386</ele>
        <time>2013-04-22T16:31:33Z</time>
      </trkpt>
      <trkpt lat="59.9534145" lon="17.7131534">
        <ele>44.8386</ele>
        <time>2013-04-22T16:31:34Z</time>
      </trkpt>
      <trkpt lat="59.9533995" lon="17.7131705">
        <ele>45.3192</ele>
        <time>2013-04-22T16:31:35Z</time>
      </trkpt>
      <trkpt lat="59.9533862" lon="17.7131864">
        <ele>45.3192</ele>
        <time>2013-04-22T16:31:36Z</time>
      </trkpt>
      <trkpt lat="59.9533718" lon="17.7132139">
        <ele>45.7999</ele>
        <time>2013-04-22T16:31:37Z</time>
      </trkpt>
      <trkpt lat="59.9533578" lon="17.7132436">
        <ele>45.3192</ele>
        <time>2013-04-22T16:31:38Z</time>
      </trkpt>
      <trkpt lat="59.9533416" lon="17.7132692">
        <ele>45.3192</ele>
        <time>2013-04-22T16:31:39Z</time>
      </trkpt>
      <trkpt lat="59.9533224" lon="17.7132952">
        <ele>45.3192</ele>
        <time>2013-04-22T16:31:40Z</time>
      </trkpt>
      <trkpt lat="59.9533044" lon="17.7133207">
        <ele>44.8386</ele>
        <time>2013-04-22T16:31:41Z</time>
      </trkpt>
      <trkpt lat="59.9532899" lon="17.7133425">
        <ele>43.8773</ele>
        <time>2013-04-22T16:31:42Z</time>
      </trkpt>
      <trkpt lat="59.9532755" lon="17.7133513">
        <ele>43.8773</ele>
        <time>2013-04-22T16:31:43Z</time>
      </trkpt>
      <trkpt lat="59.9532592" lon="17.713372">
        <ele>43.3966</ele>
        <time>2013-04-22T16:31:44Z</time>
      </trkpt>
      <trkpt lat="59.9532467" lon="17.7134">
        <ele>43.3966</ele>
        <time>2013-04-22T16:31:45Z</time>
      </trkpt>
      <trkpt lat="59.9532353" lon="17.7134239">
        <ele>44.358</ele>
        <time>2013-04-22T16:31:46Z</time>
      </trkpt>
      <trkpt lat="59.9532213" lon="17.7134596">
        <ele>43.3966</ele>
        <time>2013-04-22T16:31:47Z</time>
      </trkpt>
      <trkpt lat="59.9532037" lon="17.7134915">
        <ele>43.3966</ele>
        <time>2013-04-22T16:31:48Z</time>
      </trkpt>
      <trkpt lat="59.9531866" lon="17.7135204">
        <ele>43.3966</ele>
        <time>2013-04-22T16:31:49Z</time>
      </trkpt>
      <trkpt lat="59.9531747" lon="17.7135458">
        <ele>43.3966</ele>
        <time>2013-04-22T16:31:50Z</time>
      </trkpt>
      <trkpt lat="59.9531628" lon="17.7135588">
        <ele>43.3966</ele>
        <time>2013-04-22T16:31:51Z</time>
      </trkpt>
      <trkpt lat="59.9531515" lon="17.7135631">
        <ele>43.8773</ele>
        <time>2013-04-22T16:31:52Z</time>
      </trkpt>
      <trkpt lat="59.9531386" lon="17.7135776">
        <ele>44.358</ele>
        <time>2013-04-22T16:31:53Z</time>
      </trkpt>
      <trkpt lat="59.9531237" lon="17.7136091">
        <ele>43.8773</ele>
        <time>2013-04-22T16:31:54Z</time>
      </trkpt>
      <trkpt lat="59.9531082" lon="17.7136417">
        <ele>43.8773</ele>
        <time>2013-04-22T16:31:55Z</time>
      </trkpt>
      <trkpt lat="59.9530914" lon="17.7136709">
        <ele>43.3966</ele>
        <time>2013-04-22T16:31:56Z</time>
      </trkpt>
      <trkpt lat="59.9530729" lon="17.7136976">
        <ele>43.3966</ele>
        <time>2013-04-22T16:31:57Z</time>
      </trkpt>
      <trkpt lat="59.953052" lon="17.7137179">
        <ele>43.3966</ele>
        <time>2013-04-22T16:31:58Z</time>
      </trkpt>
      <trkpt lat="59.9530282" lon="17.7137418">
        <ele>43.3966</ele>
        <time>2013-04-22T16:31:59Z</time>
      </trkpt>
      <trkpt lat="59.9530024" lon="17.7137746">
        <ele>42.916</ele>
        <time>2013-04-22T16:32:00Z</time>
      </trkpt>
      <trkpt lat="59.9529792" lon="17.7138127">
        <ele>42.916</ele>
        <time>2013-04-22T16:32:01Z</time>
      </trkpt>
      <trkpt lat="59.9529588" lon="17.713845">
        <ele>42.4354</ele>
        <time>2013-04-22T16:32:02Z</time>
      </trkpt>
      <trkpt lat="59.9529386" lon="17.7138667">
        <ele>41.474</ele>
        <time>2013-04-22T16:32:03Z</time>
      </trkpt>
      <trkpt lat="59.9529206" lon="17.71388">
        <ele>41.474</ele>
        <time>2013-04-22T16:32:04Z</time>
      </trkpt>
      <trkpt lat="59.9529046" lon="17.7138947">
        <ele>40.9934</ele>
        <time>2013-04-22T16:32:05Z</time>
      </trkpt>
      <trkpt lat="59.9528868" lon="17.7139051">
        <ele>40.9934</ele>
        <time>2013-04-22T16:32:06Z</time>
      </trkpt>
      <trkpt lat="59.9528702" lon="17.7139123">
        <ele>41.474</ele>
        <time>2013-04-22T16:32:07Z</time>
      </trkpt>
      <trkpt lat="59.9528575" lon="17.7139237">
        <ele>41.9547</ele>
        <time>2013-04-22T16:32:08Z</time>
      </trkpt>
      <trkpt lat="59.952844" lon="17.7139426">
        <ele>41.9547</ele>
        <time>2013-04-22T16:32:09Z</time>
      </trkpt>
      <trkpt lat="59.9528214" lon="17.7139483">
        <ele>42.916</ele>
        <time>2013-04-22T16:32:10Z</time>
      </trkpt>
      <trkpt lat="59.9528" lon="17.71395">
        <ele>42.916</ele>
        <time>2013-04-22T16:32:11Z</time>
      </trkpt>
      <trkpt lat="59.9527806" lon="17.7139578">
        <ele>42.916</ele>
        <time>2013-04-22T16:32:12Z</time>
      </trkpt>
      <trkpt lat="59.9527537" lon="17.7139562">
        <ele>42.916</ele>
        <time>2013-04-22T16:32:13Z</time>
      </trkpt>
      <trkpt lat="59.9527288" lon="17.7139486">
        <ele>42.916</ele>
        <time>2013-04-22T16:32:14Z</time>
      </trkpt>
      <trkpt lat="59.9527097" lon="17.7139419">
        <ele>42.4354</ele>
        <time>2013-04-22T16:32:15Z</time>
      </trkpt>
      <trkpt lat="59.9526927" lon="17.7139317">
        <ele>41.474</ele>
        <time>2013-04-22T16:32:16Z</time>
      </trkpt>
      <trkpt lat="59.9526745" lon="17.7139133">
        <ele>41.474</ele>
        <time>2013-04-22T16:32:17Z</time>
      </trkpt>
      <trkpt lat="59.95266" lon="17.7138883">
        <ele>40.9934</ele>
        <time>2013-04-22T16:32:18Z</time>
      </trkpt>
      <trkpt lat="59.9526522" lon="17.7138547">
        <ele>40.9934</ele>
        <time>2013-04-22T16:32:19Z</time>
      </trkpt>
      <trkpt lat="59.9526434" lon="17.7138188">
        <ele>40.5128</ele>
        <time>2013-04-22T16:32:20Z</time>
      </trkpt>
      <trkpt lat="59.9526314" lon="17.7137865">
        <ele>40.5128</ele>
        <time>2013-04-22T16:32:21Z</time>
      </trkpt>
      <trkpt lat="59.9526227" lon="17.7137564">
        <ele>39.5513</ele>
        <time>2013-04-22T16:32:22Z</time>
      </trkpt>
      <trkpt lat="59.9526091" lon="17.7137319">
        <ele>40.0321</ele>
        <time>2013-04-22T16:32:23Z</time>
      </trkpt>
      <trkpt lat="59.9525972" lon="17.7137038">
        <ele>40.0321</ele>
        <time>2013-04-22T16:32:24Z</time>
      </trkpt>
      <trkpt lat="59.9525839" lon="17.7136698">
        <ele>40.5128</ele>
        <time>2013-04-22T16:32:25Z</time>
      </trkpt>
      <trkpt lat="59.9525736" lon="17.7136351">
        <ele>40.5128</ele>
        <time>2013-04-22T16:32:26Z</time>
      </trkpt>
      <trkpt lat="59.9525664" lon="17.7135994">
        <ele>40.5128</ele>
        <time>2013-04-22T16:32:27Z</time>
      </trkpt>
      <trkpt lat="59.9525601" lon="17.7135728">
        <ele>40.5128</ele>
        <time>2013-04-22T16:32:28Z</time>
      </trkpt>
      <trkpt lat="59.9525516" lon="17.7135411">
        <ele>40.5128</ele>
        <time>2013-04-22T16:32:29Z</time>
      </trkpt>
      <trkpt lat="59.9525433" lon="17.7135028">
        <ele>40.9934</ele>
        <time>2013-04-22T16:32:30Z</time>
      </trkpt>
      <trkpt lat="59.9525319" lon="17.7134704">
        <ele>41.474</ele>
        <time>2013-04-22T16:32:31Z</time>
      </trkpt>
      <trkpt lat="59.9525206" lon="17.7134401">
        <ele>41.9547</ele>
        <time>2013-04-22T16:32:32Z</time>
      </trkpt>
      <trkpt lat="59.9525078" lon="17.7134059">
        <ele>42.4354</ele>
        <time>2013-04-22T16:32:33Z</time>
      </trkpt>
      <trkpt lat="59.9524874" lon="17.71337">
        <ele>42.916</ele>
        <time>2013-04-22T16:32:34Z</time>
      </trkpt>
      <trkpt lat="59.9524678" lon="17.7133329">
        <ele>42.916</ele>
        <time>2013-04-22T16:32:35Z</time>
      </trkpt>
      <trkpt lat="59.9524545" lon="17.7132926">
        <ele>42.916</ele>
        <time>2013-04-22T16:32:36Z</time>
      </trkpt>
      <trkpt lat="59.9524443" lon="17.7132544">
        <ele>42.916</ele>
        <time>2013-04-22T16:32:37Z</time>
      </trkpt>
      <trkpt lat="59.9524342" lon="17.713225">
        <ele>42.916</ele>
        <time>2013-04-22T16:32:38Z</time>
      </trkpt>
      <trkpt lat="59.9524211" lon="17.7132">
        <ele>42.916</ele>
        <time>2013-04-22T16:32:39Z</time>
      </trkpt>
      <trkpt lat="59.9524067" lon="17.7131709">
        <ele>42.4354</ele>
        <time>2013-04-22T16:32:40Z</time>
      </trkpt>
      <trkpt lat="59.9523979" lon="17.7131413">
        <ele>41.9547</ele>
        <time>2013-04-22T16:32:41Z</time>
      </trkpt>
      <trkpt lat="59.9523894" lon="17.713114">
        <ele>41.9547</ele>
        <time>2013-04-22T16:32:42Z</time>
      </trkpt>
      <trkpt lat="59.9523714" lon="17.7130858">
        <ele>41.9547</ele>
        <time>2013-04-22T16:32:43Z</time>
      </trkpt>
      <trkpt lat="59.9523538" lon="17.7130561">
        <ele>41.9547</ele>
        <time>2013-04-22T16:32:44Z</time>
      </trkpt>
      <trkpt lat="59.9523368" lon="17.713029">
        <ele>41.474</ele>
        <time>2013-04-22T16:32:45Z</time>
      </trkpt>
      <trkpt lat="59.9523153" lon="17.7130022">
        <ele>41.474</ele>
        <time>2013-04-22T16:32:46Z</time>
      </trkpt>
      <trkpt lat="59.9522968" lon="17.7129752">
        <ele>41.474</ele>
        <time>2013-04-22T16:32:47Z</time>
      </trkpt>
      <trkpt lat="59.9522798" lon="17.7129467">
        <ele>41.474</ele>
        <time>2013-04-22T16:32:48Z</time>
      </trkpt>
      <trkpt lat="59.9522653" lon="17.7129195">
        <ele>41.9547</ele>
        <time>2013-04-22T16:32:49Z</time>
      </trkpt>
      <trkpt lat="59.9522508" lon="17.7128893">
        <ele>41.9547</ele>
        <time>2013-04-22T16:32:50Z</time>
      </trkpt>
      <trkpt lat="59.9522397" lon="17.7128607">
        <ele>41.9547</ele>
        <time>2013-04-22T16:32:51Z</time>
      </trkpt>
      <trkpt lat="59.952229" lon="17.7128338">
        <ele>42.4354</ele>
        <time>2013-04-22T16:32:52Z</time>
      </trkpt>
      <trkpt lat="59.9522183" lon="17.7128073">
        <ele>42.4354</ele>
        <time>2013-04-22T16:32:53Z</time>
      </trkpt>
      <trkpt lat="59.9522082" lon="17.712783">
        <ele>42.916</ele>
        <time>2013-04-22T16:32:54Z</time>
      </trkpt>
      <trkpt lat="59.9521943" lon="17.7127632">
        <ele>42.916</ele>
        <time>2013-04-22T16:32:55Z</time>
      </trkpt>
      <trkpt lat="59.9521736" lon="17.7127413">
        <ele>43.3966</ele>
        <time>2013-04-22T16:32:56Z</time>
      </trkpt>
      <trkpt lat="59.9521569" lon="17.7127167">
        <ele>43.3966</ele>
        <time>2013-04-22T16:32:57Z</time>
      </trkpt>
      <trkpt lat="59.9521503" lon="17.7126949">
        <ele>43.3966</ele>
        <time>2013-04-22T16:32:58Z</time>
      </trkpt>
      <trkpt lat="59.9521532" lon="17.7126715">
        <ele>42.916</ele>
        <time>2013-04-22T16:32:59Z</time>
      </trkpt>
      <trkpt lat="59.9521577" lon="17.712654">
        <ele>43.3966</ele>
        <time>2013-04-22T16:33:00Z</time>
      </trkpt>
      <trkpt lat="59.9521636" lon="17.7126405">
        <ele>43.3966</ele>
        <time>2013-04-22T16:33:01Z</time>
      </trkpt>
      <trkpt lat="59.9521685" lon="17.7126126">
        <ele>43.3966</ele>
        <time>2013-04-22T16:33:02Z</time>
      </trkpt>
      <trkpt lat="59.9521715" lon="17.712582">
        <ele>43.3966</ele>
        <time>2013-04-22T16:33:03Z</time>
      </trkpt>
      <trkpt lat="59.9521695" lon="17.7125592">
        <ele>43.3966</ele>
        <time>2013-04-22T16:33:04Z</time>
      </trkpt>
      <trkpt lat="59.9521591" lon="17.7125393">
        <ele>43.3966</ele>
        <time>2013-04-22T16:33:05Z</time>
      </trkpt>
      <trkpt lat="59.952145" lon="17.7125178">
        <ele>43.8773</ele>
        <time>2013-04-22T16:33:06Z</time>
      </trkpt>
      <trkpt lat="59.9521242" lon="17.7124959">
        <ele>43.8773</ele>
        <time>2013-04-22T16:33:07Z</time>
      </trkpt>
      <trkpt lat="59.9521042" lon="17.7124789">
        <ele>44.358</ele>
        <time>2013-04-22T16:33:08Z</time>
      </trkpt>
      <trkpt lat="59.9520872" lon="17.7124701">
        <ele>44.8386</ele>
        <time>2013-04-22T16:33:09Z</time>
      </trkpt>
      <trkpt lat="59.9520709" lon="17.7124669">
        <ele>44.8386</ele>
        <time>2013-04-22T16:33:10Z</time>
      </trkpt>
      <trkpt lat="59.9520524" lon="17.7124618">
        <ele>45.3192</ele>
        <time>2013-04-22T16:33:11Z</time>
      </trkpt>
      <trkpt lat="59.9520322" lon="17.7124598">
        <ele>45.3192</ele>
        <time>2013-04-22T16:33:12Z</time>
      </trkpt>
      <trkpt lat="59.9520045" lon="17.7124622">
        <ele>45.3192</ele>
        <time>2013-04-22T16:33:13Z</time>
      </trkpt>
      <trkpt lat="59.9519838" lon="17.7124632">
        <ele>45.3192</ele>
        <time>2013-04-22T16:33:14Z</time>
      </trkpt>
      <trkpt lat="59.9519668" lon="17.7124617">
        <ele>45.3192</ele>
        <time>2013-04-22T16:33:15Z</time>
      </trkpt>
      <trkpt lat="59.9519528" lon="17.7124549">
        <ele>45.7999</ele>
        <time>2013-04-22T16:33:16Z</time>
      </trkpt>
      <trkpt lat="59.9519426" lon="17.7124416">
        <ele>46.2806</ele>
        <time>2013-04-22T16:33:17Z</time>
      </trkpt>
      <trkpt lat="59.9519318" lon="17.7124271">
        <ele>46.2806</ele>
        <time>2013-04-22T16:33:18Z</time>
      </trkpt>
      <trkpt lat="59.9519171" lon="17.7124146">
        <ele>46.2806</ele>
        <time>2013-04-22T16:33:19Z</time>
      </trkpt>
      <trkpt lat="59.9518991" lon="17.7124078">
        <ele>45.7999</ele>
        <time>2013-04-22T16:33:20Z</time>
      </trkpt>
      <trkpt lat="59.9518803" lon="17.7124095">
        <ele>45.7999</ele>
        <time>2013-04-22T16:33:21Z</time>
      </trkpt>
      <trkpt lat="59.9518603" lon="17.7124142">
        <ele>45.3192</ele>
        <time>2013-04-22T16:33:22Z</time>
      </trkpt>
      <trkpt lat="59.9518379" lon="17.7124251">
        <ele>45.3192</ele>
        <time>2013-04-22T16:33:23Z</time>
      </trkpt>
      <trkpt lat="59.951816" lon="17.7124322">
        <ele>44.8386</ele>
        <time>2013-04-22T16:33:24Z</time>
      </trkpt>
      <trkpt lat="59.9517991" lon="17.712438">
        <ele>44.8386</ele>
        <time>2013-04-22T16:33:25Z</time>
      </trkpt>
      <trkpt lat="59.9517799" lon="17.7124379">
        <ele>44.8386</ele>
        <time>2013-04-22T16:33:26Z</time>
      </trkpt>
      <trkpt lat="59.9517596" lon="17.7124366">
        <ele>44.8386</ele>
        <time>2013-04-22T16:33:27Z</time>
      </trkpt>
      <trkpt lat="59.9517395" lon="17.7124368">
        <ele>44.358</ele>
        <time>2013-04-22T16:33:28Z</time>
      </trkpt>
      <trkpt lat="59.9517222" lon="17.7124364">
        <ele>43.8773</ele>
        <time>2013-04-22T16:33:29Z</time>
      </trkpt>
      <trkpt lat="59.9517037" lon="17.7124359">
        <ele>43.3966</ele>
        <time>2013-04-22T16:33:30Z</time>
      </trkpt>
      <trkpt lat="59.9516855" lon="17.7124326">
        <ele>43.8773</ele>
        <time>2013-04-22T16:33:31Z</time>
      </trkpt>
      <trkpt lat="59.9516678" lon="17.7124302">
        <ele>43.8773</ele>
        <time>2013-04-22T16:33:32Z</time>
      </trkpt>
      <trkpt lat="59.9516468" lon="17.7124287">
        <ele>43.8773</ele>
        <time>2013-04-22T16:33:33Z</time>
      </trkpt>
      <trkpt lat="59.9516271" lon="17.7124255">
        <ele>43.8773</ele>
        <time>2013-04-22T16:33:34Z</time>
      </trkpt>
      <trkpt lat="59.951609" lon="17.7124276">
        <ele>43.8773</ele>
        <time>2013-04-22T16:33:35Z</time>
      </trkpt>
      <trkpt lat="59.951591" lon="17.7124222">
        <ele>43.3966</ele>
        <time>2013-04-22T16:33:36Z</time>
      </trkpt>
      <trkpt lat="59.9515726" lon="17.7124183">
        <ele>42.916</ele>
        <time>2013-04-22T16:33:37Z</time>
      </trkpt>
      <trkpt lat="59.9515531" lon="17.7124169">
        <ele>43.3966</ele>
        <time>2013-04-22T16:33:38Z</time>
      </trkpt>
      <trkpt lat="59.9515333" lon="17.7124117">
        <ele>43.8773</ele>
        <time>2013-04-22T16:33:39Z</time>
      </trkpt>
      <trkpt lat="59.9515107" lon="17.7124049">
        <ele>42.916</ele>
        <time>2013-04-22T16:33:40Z</time>
      </trkpt>
      <trkpt lat="59.9514896" lon="17.7123965">
        <ele>41.9547</ele>
        <time>2013-04-22T16:33:41Z</time>
      </trkpt>
      <trkpt lat="59.9514686" lon="17.7123845">
        <ele>41.474</ele>
        <time>2013-04-22T16:33:42Z</time>
      </trkpt>
      <trkpt lat="59.9514441" lon="17.7123744">
        <ele>40.5128</ele>
        <time>2013-04-22T16:33:43Z</time>
      </trkpt>
      <trkpt lat="59.9514225" lon="17.7123624">
        <ele>40.0321</ele>
        <time>2013-04-22T16:33:44Z</time>
      </trkpt>
      <trkpt lat="59.9513997" lon="17.7123568">
        <ele>40.9934</ele>
        <time>2013-04-22T16:33:45Z</time>
      </trkpt>
      <trkpt lat="59.9513775" lon="17.7123489">
        <ele>40.9934</ele>
        <time>2013-04-22T16:33:46Z</time>
      </trkpt>
      <trkpt lat="59.9513572" lon="17.7123396">
        <ele>40.9934</ele>
        <time>2013-04-22T16:33:47Z</time>
      </trkpt>
      <trkpt lat="59.9513408" lon="17.7123285">
        <ele>40.9934</ele>
        <time>2013-04-22T16:33:48Z</time>
      </trkpt>
      <trkpt lat="59.9513231" lon="17.7123161">
        <ele>40.5128</ele>
        <time>2013-04-22T16:33:49Z</time>
      </trkpt>
      <trkpt lat="59.9513044" lon="17.712306">
        <ele>40.5128</ele>
        <time>2013-04-22T16:33:50Z</time>
      </trkpt>
      <trkpt lat="59.951285" lon="17.7123018">
        <ele>40.9934</ele>
        <time>2013-04-22T16:33:51Z</time>
      </trkpt>
      <trkpt lat="59.9512646" lon="17.712299">
        <ele>41.474</ele>
        <time>2013-04-22T16:33:52Z</time>
      </trkpt>
      <trkpt lat="59.9512452" lon="17.7122914">
        <ele>41.474</ele>
        <time>2013-04-22T16:33:53Z</time>
      </trkpt>
      <trkpt lat="59.9512223" lon="17.7122811">
        <ele>40.9934</ele>
        <time>2013-04-22T16:33:54Z</time>
      </trkpt>
      <trkpt lat="59.9511966" lon="17.7122779">
        <ele>40.5128</ele>
        <time>2013-04-22T16:33:55Z</time>
      </trkpt>
      <trkpt lat="59.9511729" lon="17.7122696">
        <ele>40.5128</ele>
        <time>2013-04-22T16:33:56Z</time>
      </trkpt>
      <trkpt lat="59.9511556" lon="17.7122612">
        <ele>40.0321</ele>
        <time>2013-04-22T16:33:57Z</time>
      </trkpt>
      <trkpt lat="59.9511374" lon="17.7122586">
        <ele>40.5128</ele>
        <time>2013-04-22T16:33:58Z</time>
      </trkpt>
      <trkpt lat="59.9511152" lon="17.7122508">
        <ele>40.5128</ele>
        <time>2013-04-22T16:33:59Z</time>
      </trkpt>
      <trkpt lat="59.951091" lon="17.7122328">
        <ele>40.5128</ele>
        <time>2013-04-22T16:34:00Z</time>
      </trkpt>
      <trkpt lat="59.9510692" lon="17.7122158">
        <ele>40.5128</ele>
        <time>2013-04-22T16:34:01Z</time>
      </trkpt>
      <trkpt lat="59.9510476" lon="17.7121969">
        <ele>40.5128</ele>
        <time>2013-04-22T16:34:02Z</time>
      </trkpt>
      <trkpt lat="59.9510274" lon="17.7121737">
        <ele>40.0321</ele>
        <time>2013-04-22T16:34:03Z</time>
      </trkpt>
      <trkpt lat="59.9510075" lon="17.7121478">
        <ele>40.0321</ele>
        <time>2013-04-22T16:34:04Z</time>
      </trkpt>
      <trkpt lat="59.9509868" lon="17.7121234">
        <ele>40.0321</ele>
        <time>2013-04-22T16:34:05Z</time>
      </trkpt>
      <trkpt lat="59.9509698" lon="17.7120978">
        <ele>40.0321</ele>
        <time>2013-04-22T16:34:06Z</time>
      </trkpt>
      <trkpt lat="59.9509545" lon="17.7120679">
        <ele>40.5128</ele>
        <time>2013-04-22T16:34:07Z</time>
      </trkpt>
      <trkpt lat="59.9509395" lon="17.7120376">
        <ele>40.5128</ele>
        <time>2013-04-22T16:34:08Z</time>
      </trkpt>
      <trkpt lat="59.9509246" lon="17.7120065">
        <ele>40.9934</ele>
        <time>2013-04-22T16:34:09Z</time>
      </trkpt>
      <trkpt lat="59.9509096" lon="17.7119764">
        <ele>40.9934</ele>
        <time>2013-04-22T16:34:10Z</time>
      </trkpt>
      <trkpt lat="59.9508909" lon="17.7119443">
        <ele>41.474</ele>
        <time>2013-04-22T16:34:11Z</time>
      </trkpt>
      <trkpt lat="59.950874" lon="17.7119103">
        <ele>41.474</ele>
        <time>2013-04-22T16:34:12Z</time>
      </trkpt>
      <trkpt lat="59.9508553" lon="17.711874">
        <ele>41.9547</ele>
        <time>2013-04-22T16:34:13Z</time>
      </trkpt>
      <trkpt lat="59.9508372" lon="17.7118424">
        <ele>41.9547</ele>
        <time>2013-04-22T16:34:14Z</time>
      </trkpt>
      <trkpt lat="59.9508202" lon="17.7118138">
        <ele>41.9547</ele>
        <time>2013-04-22T16:34:15Z</time>
      </trkpt>
      <trkpt lat="59.950806" lon="17.7117837">
        <ele>41.9547</ele>
        <time>2013-04-22T16:34:16Z</time>
      </trkpt>
      <trkpt lat="59.950791" lon="17.711751">
        <ele>42.4354</ele>
        <time>2013-04-22T16:34:17Z</time>
      </trkpt>
      <trkpt lat="59.9507751" lon="17.7117183">
        <ele>42.916</ele>
        <time>2013-04-22T16:34:18Z</time>
      </trkpt>
      <trkpt lat="59.9507566" lon="17.7116833">
        <ele>42.916</ele>
        <time>2013-04-22T16:34:19Z</time>
      </trkpt>
      <trkpt lat="59.9507315" lon="17.7116662">
        <ele>42.4354</ele>
        <time>2013-04-22T16:34:20Z</time>
      </trkpt>
      <trkpt lat="59.9507102" lon="17.7116724">
        <ele>42.4354</ele>
        <time>2013-04-22T16:34:21Z</time>
      </trkpt>
      <trkpt lat="59.9506891" lon="17.7116901">
        <ele>42.4354</ele>
        <time>2013-04-22T16:34:22Z</time>
      </trkpt>
      <trkpt lat="59.9506725" lon="17.7117091">
        <ele>42.4354</ele>
        <time>2013-04-22T16:34:23Z</time>
      </trkpt>
      <trkpt lat="59.9506558" lon="17.7117257">
        <ele>41.9547</ele>
        <time>2013-04-22T16:34:24Z</time>
      </trkpt>
      <trkpt lat="59.9506335" lon="17.7117312">
        <ele>41.9547</ele>
        <time>2013-04-22T16:34:25Z</time>
      </trkpt>
      <trkpt lat="59.9506149" lon="17.7117279">
        <ele>41.9547</ele>
        <time>2013-04-22T16:34:26Z</time>
      </trkpt>
      <trkpt lat="59.9505999" lon="17.7117257">
        <ele>41.9547</ele>
        <time>2013-04-22T16:34:27Z</time>
      </trkpt>
      <trkpt lat="59.9505812" lon="17.7117204">
        <ele>41.9547</ele>
        <time>2013-04-22T16:34:28Z</time>
      </trkpt>
      <trkpt lat="59.950565" lon="17.7116999">
        <ele>41.9547</ele>
        <time>2013-04-22T16:34:29Z</time>
      </trkpt>
      <trkpt lat="59.950546" lon="17.7116836">
        <ele>41.9547</ele>
        <time>2013-04-22T16:34:30Z</time>
      </trkpt>
      <trkpt lat="59.9505288" lon="17.7116662">
        <ele>41.9547</ele>
        <time>2013-04-22T16:34:31Z</time>
      </trkpt>
      <trkpt lat="59.9505125" lon="17.7116491">
        <ele>41.9547</ele>
        <time>2013-04-22T16:34:32Z</time>
      </trkpt>
      <trkpt lat="59.9504942" lon="17.7116338">
        <ele>41.9547</ele>
        <time>2013-04-22T16:34:33Z</time>
      </trkpt>
      <trkpt lat="59.950475" lon="17.7116204">
        <ele>42.916</ele>
        <time>2013-04-22T16:34:34Z</time>
      </trkpt>
      <trkpt lat="59.9504584" lon="17.7115984">
        <ele>42.4354</ele>
        <time>2013-04-22T16:34:35Z</time>
      </trkpt>
      <trkpt lat="59.9504383" lon="17.7115729">
        <ele>42.916</ele>
        <time>2013-04-22T16:34:36Z</time>
      </trkpt>
      <trkpt lat="59.9504194" lon="17.7115458">
        <ele>42.4354</ele>
        <time>2013-04-22T16:34:37Z</time>
      </trkpt>
      <trkpt lat="59.9503989" lon="17.7115214">
        <ele>42.916</ele>
        <time>2013-04-22T16:34:38Z</time>
      </trkpt>
      <trkpt lat="59.950379" lon="17.7114983">
        <ele>43.3966</ele>
        <time>2013-04-22T16:34:39Z</time>
      </trkpt>
      <trkpt lat="59.9503604" lon="17.7114731">
        <ele>43.3966</ele>
        <time>2013-04-22T16:34:40Z</time>
      </trkpt>
      <trkpt lat="59.9503393" lon="17.7114482">
        <ele>43.3966</ele>
        <time>2013-04-22T16:34:41Z</time>
      </trkpt>
      <trkpt lat="59.9503181" lon="17.7114231">
        <ele>43.8773</ele>
        <time>2013-04-22T16:34:42Z</time>
      </trkpt>
      <trkpt lat="59.9502993" lon="17.7113931">
        <ele>44.358</ele>
        <time>2013-04-22T16:34:43Z</time>
      </trkpt>
      <trkpt lat="59.9502822" lon="17.7113632">
        <ele>43.8773</ele>
        <time>2013-04-22T16:34:44Z</time>
      </trkpt>
      <trkpt lat="59.9502651" lon="17.7113365">
        <ele>43.8773</ele>
        <time>2013-04-22T16:34:45Z</time>
      </trkpt>
      <trkpt lat="59.9502496" lon="17.7113037">
        <ele>43.8773</ele>
        <time>2013-04-22T16:34:46Z</time>
      </trkpt>
      <trkpt lat="59.9502355" lon="17.7112703">
        <ele>44.358</ele>
        <time>2013-04-22T16:34:47Z</time>
      </trkpt>
      <trkpt lat="59.9502198" lon="17.7112419">
        <ele>44.358</ele>
        <time>2013-04-22T16:34:48Z</time>
      </trkpt>
      <trkpt lat="59.9502014" lon="17.7112215">
        <ele>44.358</ele>
        <time>2013-04-22T16:34:49Z</time>
      </trkpt>
      <trkpt lat="59.9501797" lon="17.7112107">
        <ele>44.358</ele>
        <time>2013-04-22T16:34:50Z</time>
      </trkpt>
      <trkpt lat="59.9501549" lon="17.7112108">
        <ele>44.358</ele>
        <time>2013-04-22T16:34:51Z</time>
      </trkpt>
      <trkpt lat="59.9501301" lon="17.711216">
        <ele>44.358</ele>
        <time>2013-04-22T16:34:52Z</time>
      </trkpt>
      <trkpt lat="59.9501067" lon="17.7112263">
        <ele>44.358</ele>
        <time>2013-04-22T16:34:53Z</time>
      </trkpt>
      <trkpt lat="59.9500839" lon="17.7112419">
        <ele>43.8773</ele>
        <time>2013-04-22T16:34:54Z</time>
      </trkpt>
      <trkpt lat="59.9500638" lon="17.7112616">
        <ele>43.8773</ele>
        <time>2013-04-22T16:34:55Z</time>
      </trkpt>
      <trkpt lat="59.9500476" lon="17.7112813">
        <ele>43.3966</ele>
        <time>2013-04-22T16:34:56Z</time>
      </trkpt>
      <trkpt lat="59.9500284" lon="17.7112978">
        <ele>43.3966</ele>
        <time>2013-04-22T16:34:57Z</time>
      </trkpt>
      <trkpt lat="59.9500071" lon="17.7113108">
        <ele>43.3966</ele>
        <time>2013-04-22T16:34:58Z</time>
      </trkpt>
      <trkpt lat="59.9499854" lon="17.7113223">
        <ele>42.916</ele>
        <time>2013-04-22T16:34:59Z</time>
      </trkpt>
      <trkpt lat="59.9499636" lon="17.7113324">
        <ele>42.916</ele>
        <time>2013-04-22T16:35:00Z</time>
      </trkpt>
      <trkpt lat="59.9499446" lon="17.7113397">
        <ele>42.4354</ele>
        <time>2013-04-22T16:35:01Z</time>
      </trkpt>
      <trkpt lat="59.9499268" lon="17.7113464">
        <ele>41.9547</ele>
        <time>2013-04-22T16:35:02Z</time>
      </trkpt>
      <trkpt lat="59.9499068" lon="17.7113511">
        <ele>41.474</ele>
        <time>2013-04-22T16:35:03Z</time>
      </trkpt>
      <trkpt lat="59.9498855" lon="17.7113551">
        <ele>40.9934</ele>
        <time>2013-04-22T16:35:04Z</time>
      </trkpt>
      <trkpt lat="59.9498672" lon="17.7113631">
        <ele>40.5128</ele>
        <time>2013-04-22T16:35:05Z</time>
      </trkpt>
      <trkpt lat="59.9498274" lon="17.7113828">
        <ele>40.0321</ele>
        <time>2013-04-22T16:35:07Z</time>
      </trkpt>
      <trkpt lat="59.9498094" lon="17.7113914">
        <ele>39.5513</ele>
        <time>2013-04-22T16:35:08Z</time>
      </trkpt>
      <trkpt lat="59.9497877" lon="17.711401">
        <ele>39.5513</ele>
        <time>2013-04-22T16:35:09Z</time>
      </trkpt>
      <trkpt lat="59.9497654" lon="17.7114129">
        <ele>39.0707</ele>
        <time>2013-04-22T16:35:10Z</time>
      </trkpt>
      <trkpt lat="59.9497441" lon="17.7114254">
        <ele>38.5901</ele>
        <time>2013-04-22T16:35:11Z</time>
      </trkpt>
      <trkpt lat="59.9497237" lon="17.711437">
        <ele>38.5901</ele>
        <time>2013-04-22T16:35:12Z</time>
      </trkpt>
      <trkpt lat="59.9497025" lon="17.7114449">
        <ele>38.1094</ele>
        <time>2013-04-22T16:35:13Z</time>
      </trkpt>
      <trkpt lat="59.9496844" lon="17.7114528">
        <ele>38.1094</ele>
        <time>2013-04-22T16:35:14Z</time>
      </trkpt>
      <trkpt lat="59.9496665" lon="17.7114631">
        <ele>37.6287</ele>
        <time>2013-04-22T16:35:15Z</time>
      </trkpt>
      <trkpt lat="59.9496477" lon="17.7114735">
        <ele>37.6287</ele>
        <time>2013-04-22T16:35:16Z</time>
      </trkpt>
      <trkpt lat="59.9496327" lon="17.7114855">
        <ele>37.1481</ele>
        <time>2013-04-22T16:35:17Z</time>
      </trkpt>
      <trkpt lat="59.9496192" lon="17.7114956">
        <ele>37.1481</ele>
        <time>2013-04-22T16:35:18Z</time>
      </trkpt>
      <trkpt lat="59.9496043" lon="17.7115024">
        <ele>37.1481</ele>
        <time>2013-04-22T16:35:19Z</time>
      </trkpt>
      <trkpt lat="59.9495881" lon="17.7115133">
        <ele>37.1481</ele>
        <time>2013-04-22T16:35:20Z</time>
      </trkpt>
      <trkpt lat="59.9495696" lon="17.711529">
        <ele>36.6675</ele>
        <time>2013-04-22T16:35:21Z</time>
      </trkpt>
      <trkpt lat="59.9495499" lon="17.7115439">
        <ele>36.6675</ele>
        <time>2013-04-22T16:35:22Z</time>
      </trkpt>
      <trkpt lat="59.9495321" lon="17.7115548">
        <ele>36.6675</ele>
        <time>2013-04-22T16:35:23Z</time>
      </trkpt>
      <trkpt lat="59.9495157" lon="17.7115717">
        <ele>36.6675</ele>
        <time>2013-04-22T16:35:24Z</time>
      </trkpt>
      <trkpt lat="59.9495015" lon="17.7115986">
        <ele>37.1481</ele>
        <time>2013-04-22T16:35:25Z</time>
      </trkpt>
      <trkpt lat="59.9494908" lon="17.7116284">
        <ele>37.6287</ele>
        <time>2013-04-22T16:35:26Z</time>
      </trkpt>
      <trkpt lat="59.9494775" lon="17.7116676">
        <ele>37.6287</ele>
        <time>2013-04-22T16:35:27Z</time>
      </trkpt>
      <trkpt lat="59.9494653" lon="17.7117071">
        <ele>38.1094</ele>
        <time>2013-04-22T16:35:28Z</time>
      </trkpt>
      <trkpt lat="59.949453" lon="17.7117528">
        <ele>39.0707</ele>
        <time>2013-04-22T16:35:29Z</time>
      </trkpt>
      <trkpt lat="59.9494473" lon="17.7117978">
        <ele>40.5128</ele>
        <time>2013-04-22T16:35:30Z</time>
      </trkpt>
      <trkpt lat="59.9494395" lon="17.7118463">
        <ele>40.9934</ele>
        <time>2013-04-22T16:35:31Z</time>
      </trkpt>
      <trkpt lat="59.9494323" lon="17.7118921">
        <ele>42.4354</ele>
        <time>2013-04-22T16:35:32Z</time>
      </trkpt>
      <trkpt lat="59.9494245" lon="17.7119333">
        <ele>44.358</ele>
        <time>2013-04-22T16:35:33Z</time>
      </trkpt>
      <trkpt lat="59.9494226" lon="17.7119662">
        <ele>45.7999</ele>
        <time>2013-04-22T16:35:34Z</time>
      </trkpt>
      <trkpt lat="59.9494188" lon="17.7120022">
        <ele>45.7999</ele>
        <time>2013-04-22T16:35:35Z</time>
      </trkpt>
      <trkpt lat="59.9494157" lon="17.7120337">
        <ele>46.7612</ele>
        <time>2013-04-22T16:35:36Z</time>
      </trkpt>
      <trkpt lat="59.9494162" lon="17.7120635">
        <ele>47.7225</ele>
        <time>2013-04-22T16:35:37Z</time>
      </trkpt>
      <trkpt lat="59.9494166" lon="17.7120925">
        <ele>48.684</ele>
        <time>2013-04-22T16:35:38Z</time>
      </trkpt>
      <trkpt lat="59.9494126" lon="17.712126">
        <ele>50.126</ele>
        <time>2013-04-22T16:35:39Z</time>
      </trkpt>
      <trkpt lat="59.9494085" lon="17.7121603">
        <ele>51.0872</ele>
        <time>2013-04-22T16:35:40Z</time>
      </trkpt>
      <trkpt lat="59.9494072" lon="17.7121996">
        <ele>51.5679</ele>
        <time>2013-04-22T16:35:41Z</time>
      </trkpt>
      <trkpt lat="59.9494015" lon="17.7122446">
        <ele>53.0098</ele>
        <time>2013-04-22T16:35:42Z</time>
      </trkpt>
      <trkpt lat="59.9494006" lon="17.7122886">
        <ele>54.9324</ele>
        <time>2013-04-22T16:35:43Z</time>
      </trkpt>
      <trkpt lat="59.9493949" lon="17.7123314">
        <ele>56.8551</ele>
        <time>2013-04-22T16:35:44Z</time>
      </trkpt>
      <trkpt lat="59.949386" lon="17.7123736">
        <ele>57.3358</ele>
        <time>2013-04-22T16:35:45Z</time>
      </trkpt>
      <trkpt lat="59.9493777" lon="17.7124131">
        <ele>57.3358</ele>
        <time>2013-04-22T16:35:46Z</time>
      </trkpt>
      <trkpt lat="59.9493691" lon="17.7124484">
        <ele>57.8165</ele>
        <time>2013-04-22T16:35:47Z</time>
      </trkpt>
      <trkpt lat="59.9493608" lon="17.7124809">
        <ele>57.8165</ele>
        <time>2013-04-22T16:35:48Z</time>
      </trkpt>
      <trkpt lat="59.949348" lon="17.712513">
        <ele>57.8165</ele>
        <time>2013-04-22T16:35:49Z</time>
      </trkpt>
      <trkpt lat="59.9493374" lon="17.7125482">
        <ele>58.2971</ele>
        <time>2013-04-22T16:35:50Z</time>
      </trkpt>
      <trkpt lat="59.9493276" lon="17.712587">
        <ele>58.2971</ele>
        <time>2013-04-22T16:35:51Z</time>
      </trkpt>
      <trkpt lat="59.9493189" lon="17.7126315">
        <ele>57.3358</ele>
        <time>2013-04-22T16:35:52Z</time>
      </trkpt>
      <trkpt lat="59.9493043" lon="17.7126639">
        <ele>57.3358</ele>
        <time>2013-04-22T16:35:53Z</time>
      </trkpt>
      <trkpt lat="59.9492842" lon="17.7126834">
        <ele>57.3358</ele>
        <time>2013-04-22T16:35:54Z</time>
      </trkpt>
      <trkpt lat="59.9492634" lon="17.7127084">
        <ele>56.8551</ele>
        <time>2013-04-22T16:35:55Z</time>
      </trkpt>
      <trkpt lat="59.9492484" lon="17.712736">
        <ele>57.3358</ele>
        <time>2013-04-22T16:35:56Z</time>
      </trkpt>
      <trkpt lat="59.9492313" lon="17.7127592">
        <ele>57.3358</ele>
        <time>2013-04-22T16:35:57Z</time>
      </trkpt>
      <trkpt lat="59.9492115" lon="17.7127825">
        <ele>56.8551</ele>
        <time>2013-04-22T16:35:58Z</time>
      </trkpt>
      <trkpt lat="59.9491908" lon="17.712811">
        <ele>56.3745</ele>
        <time>2013-04-22T16:35:59Z</time>
      </trkpt>
      <trkpt lat="59.9491692" lon="17.7128362">
        <ele>55.8938</ele>
        <time>2013-04-22T16:36:00Z</time>
      </trkpt>
      <trkpt lat="59.9491491" lon="17.7128581">
        <ele>55.4131</ele>
        <time>2013-04-22T16:36:01Z</time>
      </trkpt>
      <trkpt lat="59.9491293" lon="17.71288">
        <ele>54.9324</ele>
        <time>2013-04-22T16:36:02Z</time>
      </trkpt>
      <trkpt lat="59.9491048" lon="17.7129038">
        <ele>54.4518</ele>
        <time>2013-04-22T16:36:03Z</time>
      </trkpt>
      <trkpt lat="59.9490853" lon="17.7129237">
        <ele>53.9712</ele>
        <time>2013-04-22T16:36:04Z</time>
      </trkpt>
      <trkpt lat="59.9490692" lon="17.7129397">
        <ele>53.0098</ele>
        <time>2013-04-22T16:36:05Z</time>
      </trkpt>
      <trkpt lat="59.9490519" lon="17.7129582">
        <ele>52.5292</ele>
        <time>2013-04-22T16:36:06Z</time>
      </trkpt>
      <trkpt lat="59.9490338" lon="17.712977">
        <ele>51.5679</ele>
        <time>2013-04-22T16:36:07Z</time>
      </trkpt>
      <trkpt lat="59.9490033" lon="17.7130112">
        <ele>52.0486</ele>
        <time>2013-04-22T16:36:08Z</time>
      </trkpt>
      <trkpt lat="59.9489793" lon="17.7130265">
        <ele>51.5679</ele>
        <time>2013-04-22T16:36:09Z</time>
      </trkpt>
      <trkpt lat="59.9489526" lon="17.7130358">
        <ele>50.6066</ele>
        <time>2013-04-22T16:36:10Z</time>
      </trkpt>
      <trkpt lat="59.9489301" lon="17.7130434">
        <ele>49.6453</ele>
        <time>2013-04-22T16:36:11Z</time>
      </trkpt>
      <trkpt lat="59.9489115" lon="17.7130523">
        <ele>49.6453</ele>
        <time>2013-04-22T16:36:12Z</time>
      </trkpt>
      <trkpt lat="59.9488899" lon="17.7130692">
        <ele>49.1646</ele>
        <time>2013-04-22T16:36:13Z</time>
      </trkpt>
      <trkpt lat="59.94887" lon="17.7130874">
        <ele>48.2034</ele>
        <time>2013-04-22T16:36:14Z</time>
      </trkpt>
      <trkpt lat="59.9488524" lon="17.7131053">
        <ele>46.7612</ele>
        <time>2013-04-22T16:36:15Z</time>
      </trkpt>
      <trkpt lat="59.9488398" lon="17.7131177">
        <ele>46.2806</ele>
        <time>2013-04-22T16:36:16Z</time>
      </trkpt>
      <trkpt lat="59.9488261" lon="17.7131412">
        <ele>45.3192</ele>
        <time>2013-04-22T16:36:17Z</time>
      </trkpt>
      <trkpt lat="59.9488112" lon="17.7131701">
        <ele>44.358</ele>
        <time>2013-04-22T16:36:18Z</time>
      </trkpt>
      <trkpt lat="59.9487992" lon="17.7132021">
        <ele>43.3966</ele>
        <time>2013-04-22T16:36:19Z</time>
      </trkpt>
      <trkpt lat="59.9487889" lon="17.7132392">
        <ele>42.4354</ele>
        <time>2013-04-22T16:36:20Z</time>
      </trkpt>
      <trkpt lat="59.9487644" lon="17.7132928">
        <ele>42.916</ele>
        <time>2013-04-22T16:36:21Z</time>
      </trkpt>
      <trkpt lat="59.9487528" lon="17.7133391">
        <ele>42.916</ele>
        <time>2013-04-22T16:36:22Z</time>
      </trkpt>
      <trkpt lat="59.9487527" lon="17.7133786">
        <ele>41.9547</ele>
        <time>2013-04-22T16:36:23Z</time>
      </trkpt>
      <trkpt lat="59.9487528" lon="17.7134248">
        <ele>39.5513</ele>
        <time>2013-04-22T16:36:24Z</time>
      </trkpt>
      <trkpt lat="59.9487542" lon="17.7134748">
        <ele>38.5901</ele>
        <time>2013-04-22T16:36:25Z</time>
      </trkpt>
      <trkpt lat="59.9487661" lon="17.7135218">
        <ele>38.5901</ele>
        <time>2013-04-22T16:36:26Z</time>
      </trkpt>
      <trkpt lat="59.9487799" lon="17.7135693">
        <ele>38.1094</ele>
        <time>2013-04-22T16:36:27Z</time>
      </trkpt>
      <trkpt lat="59.9487898" lon="17.7136127">
        <ele>38.1094</ele>
        <time>2013-04-22T16:36:28Z</time>
      </trkpt>
      <trkpt lat="59.9488008" lon="17.7136444">
        <ele>36.6675</ele>
        <time>2013-04-22T16:36:29Z</time>
      </trkpt>
      <trkpt lat="59.9488086" lon="17.7136769">
        <ele>35.2255</ele>
        <time>2013-04-22T16:36:30Z</time>
      </trkpt>
      <trkpt lat="59.9488188" lon="17.7137077">
        <ele>33.7834</ele>
        <time>2013-04-22T16:36:31Z</time>
      </trkpt>
      <trkpt lat="59.948831" lon="17.7137372">
        <ele>32.3416</ele>
        <time>2013-04-22T16:36:32Z</time>
      </trkpt>
      <trkpt lat="59.9488444" lon="17.7137626">
        <ele>31.3801</ele>
        <time>2013-04-22T16:36:33Z</time>
      </trkpt>
      <trkpt lat="59.9488599" lon="17.7137791">
        <ele>29.4575</ele>
        <time>2013-04-22T16:36:34Z</time>
      </trkpt>
      <trkpt lat="59.9488749" lon="17.7137976">
        <ele>28.9769</ele>
        <time>2013-04-22T16:36:35Z</time>
      </trkpt>
      <trkpt lat="59.9488885" lon="17.7138154">
        <ele>27.5349</ele>
        <time>2013-04-22T16:36:36Z</time>
      </trkpt>
      <trkpt lat="59.9489068" lon="17.7138293">
        <ele>26.5736</ele>
        <time>2013-04-22T16:36:37Z</time>
      </trkpt>
      <trkpt lat="59.9489262" lon="17.7138408">
        <ele>25.6123</ele>
        <time>2013-04-22T16:36:38Z</time>
      </trkpt>
      <trkpt lat="59.9489505" lon="17.7138573">
        <ele>27.5349</ele>
        <time>2013-04-22T16:36:39Z</time>
      </trkpt>
      <trkpt lat="59.948963" lon="17.7138692">
        <ele>26.5736</ele>
        <time>2013-04-22T16:36:40Z</time>
      </trkpt>
      <trkpt lat="59.9489771" lon="17.7138777">
        <ele>25.1317</ele>
        <time>2013-04-22T16:36:41Z</time>
      </trkpt>
      <trkpt lat="59.9489925" lon="17.7138984">
        <ele>25.6123</ele>
        <time>2013-04-22T16:36:42Z</time>
      </trkpt>
      <trkpt lat="59.9490075" lon="17.7139221">
        <ele>26.0929</ele>
        <time>2013-04-22T16:36:43Z</time>
      </trkpt>
      <trkpt lat="59.9490188" lon="17.7139429">
        <ele>25.1317</ele>
        <time>2013-04-22T16:36:44Z</time>
      </trkpt>
      <trkpt lat="59.9490353" lon="17.7139644">
        <ele>25.1317</ele>
        <time>2013-04-22T16:36:45Z</time>
      </trkpt>
      <trkpt lat="59.9490552" lon="17.7139858">
        <ele>24.1703</ele>
        <time>2013-04-22T16:36:46Z</time>
      </trkpt>
      <trkpt lat="59.9490718" lon="17.7140039">
        <ele>23.209</ele>
        <time>2013-04-22T16:36:47Z</time>
      </trkpt>
      <trkpt lat="59.9490888" lon="17.7140287">
        <ele>23.6896</ele>
        <time>2013-04-22T16:36:48Z</time>
      </trkpt>
      <trkpt lat="59.9491064" lon="17.7140547">
        <ele>23.209</ele>
        <time>2013-04-22T16:36:49Z</time>
      </trkpt>
      <trkpt lat="59.949124" lon="17.7140785">
        <ele>21.767</ele>
        <time>2013-04-22T16:36:50Z</time>
      </trkpt>
      <trkpt lat="59.9491425" lon="17.7140982">
        <ele>20.8057</ele>
        <time>2013-04-22T16:36:51Z</time>
      </trkpt>
      <trkpt lat="59.9491601" lon="17.7141236">
        <ele>21.2864</ele>
        <time>2013-04-22T16:36:52Z</time>
      </trkpt>
      <trkpt lat="59.9491772" lon="17.7141431">
        <ele>21.2864</ele>
        <time>2013-04-22T16:36:53Z</time>
      </trkpt>
      <trkpt lat="59.9491909" lon="17.7141645">
        <ele>20.8057</ele>
        <time>2013-04-22T16:36:54Z</time>
      </trkpt>
      <trkpt lat="59.9492033" lon="17.7141915">
        <ele>20.325</ele>
        <time>2013-04-22T16:36:55Z</time>
      </trkpt>
      <trkpt lat="59.9492166" lon="17.7142198">
        <ele>20.325</ele>
        <time>2013-04-22T16:36:56Z</time>
      </trkpt>
      <trkpt lat="59.9492299" lon="17.7142452">
        <ele>20.325</ele>
        <time>2013-04-22T16:36:57Z</time>
      </trkpt>
      <trkpt lat="59.9492469" lon="17.7142692">
        <ele>20.325</ele>
        <time>2013-04-22T16:36:58Z</time>
      </trkpt>
      <trkpt lat="59.9492677" lon="17.714286">
        <ele>20.325</ele>
        <time>2013-04-22T16:36:59Z</time>
      </trkpt>
      <trkpt lat="59.9492883" lon="17.7143019">
        <ele>19.8444</ele>
        <time>2013-04-22T16:37:00Z</time>
      </trkpt>
      <trkpt lat="59.9493101" lon="17.714322">
        <ele>20.8057</ele>
        <time>2013-04-22T16:37:01Z</time>
      </trkpt>
      <trkpt lat="59.9493303" lon="17.7143464">
        <ele>22.7283</ele>
        <time>2013-04-22T16:37:02Z</time>
      </trkpt>
      <trkpt lat="59.9493482" lon="17.7143799">
        <ele>24.651</ele>
        <time>2013-04-22T16:37:03Z</time>
      </trkpt>
      <trkpt lat="59.9493665" lon="17.7144195">
        <ele>27.0543</ele>
        <time>2013-04-22T16:37:04Z</time>
      </trkpt>
      <trkpt lat="59.9493851" lon="17.7144524">
        <ele>27.5349</ele>
        <time>2013-04-22T16:37:05Z</time>
      </trkpt>
      <trkpt lat="59.9494012" lon="17.7144816">
        <ele>28.0155</ele>
        <time>2013-04-22T16:37:06Z</time>
      </trkpt>
      <trkpt lat="59.9494195" lon="17.7145137">
        <ele>29.4575</ele>
        <time>2013-04-22T16:37:07Z</time>
      </trkpt>
      <trkpt lat="59.949439" lon="17.714549">
        <ele>30.8995</ele>
        <time>2013-04-22T16:37:08Z</time>
      </trkpt>
      <trkpt lat="59.9494604" lon="17.7145908">
        <ele>31.8607</ele>
        <time>2013-04-22T16:37:09Z</time>
      </trkpt>
      <trkpt lat="59.9494832" lon="17.7146395">
        <ele>34.2642</ele>
        <time>2013-04-22T16:37:10Z</time>
      </trkpt>
      <trkpt lat="59.9495002" lon="17.7146925">
        <ele>36.6675</ele>
        <time>2013-04-22T16:37:11Z</time>
      </trkpt>
      <trkpt lat="59.9495047" lon="17.7147458">
        <ele>38.5901</ele>
        <time>2013-04-22T16:37:12Z</time>
      </trkpt>
      <trkpt lat="59.9495059" lon="17.7147913">
        <ele>39.5513</ele>
        <time>2013-04-22T16:37:13Z</time>
      </trkpt>
      <trkpt lat="59.949483" lon="17.7148378">
        <ele>39.5513</ele>
        <time>2013-04-22T16:37:14Z</time>
      </trkpt>
      <trkpt lat="59.9494639" lon="17.7148768">
        <ele>40.0321</ele>
        <time>2013-04-22T16:37:15Z</time>
      </trkpt>
      <trkpt lat="59.9494586" lon="17.7149161">
        <ele>40.0321</ele>
        <time>2013-04-22T16:37:16Z</time>
      </trkpt>
      <trkpt lat="59.9494616" lon="17.7149581">
        <ele>41.474</ele>
        <time>2013-04-22T16:37:17Z</time>
      </trkpt>
      <trkpt lat="59.949463" lon="17.7149931">
        <ele>42.4354</ele>
        <time>2013-04-22T16:37:18Z</time>
      </trkpt>
      <trkpt lat="59.9494629" lon="17.7150274">
        <ele>43.3966</ele>
        <time>2013-04-22T16:37:19Z</time>
      </trkpt>
      <trkpt lat="59.9494612" lon="17.7150589">
        <ele>43.8773</ele>
        <time>2013-04-22T16:37:20Z</time>
      </trkpt>
      <trkpt lat="59.9494556" lon="17.7150944">
        <ele>44.358</ele>
        <time>2013-04-22T16:37:21Z</time>
      </trkpt>
      <trkpt lat="59.9494467" lon="17.7151306">
        <ele>43.8773</ele>
        <time>2013-04-22T16:37:22Z</time>
      </trkpt>
      <trkpt lat="59.949437" lon="17.7151679">
        <ele>43.3966</ele>
        <time>2013-04-22T16:37:23Z</time>
      </trkpt>
      <trkpt lat="59.9494256" lon="17.7151985">
        <ele>43.8773</ele>
        <time>2013-04-22T16:37:24Z</time>
      </trkpt>
      <trkpt lat="59.9494094" lon="17.7152239">
        <ele>44.8386</ele>
        <time>2013-04-22T16:37:25Z</time>
      </trkpt>
      <trkpt lat="59.949391" lon="17.715245">
        <ele>45.3192</ele>
        <time>2013-04-22T16:37:26Z</time>
      </trkpt>
      <trkpt lat="59.9493764" lon="17.7152663">
        <ele>45.3192</ele>
        <time>2013-04-22T16:37:27Z</time>
      </trkpt>
      <trkpt lat="59.9493614" lon="17.7152886">
        <ele>45.3192</ele>
        <time>2013-04-22T16:37:28Z</time>
      </trkpt>
      <trkpt lat="59.949342" lon="17.7153118">
        <ele>46.2806</ele>
        <time>2013-04-22T16:37:29Z</time>
      </trkpt>
      <trkpt lat="59.9493171" lon="17.7153237">
        <ele>46.2806</ele>
        <time>2013-04-22T16:37:30Z</time>
      </trkpt>
      <trkpt lat="59.9492938" lon="17.7153208">
        <ele>47.7225</ele>
        <time>2013-04-22T16:37:31Z</time>
      </trkpt>
      <trkpt lat="59.9492739" lon="17.7152979">
        <ele>47.7225</ele>
        <time>2013-04-22T16:37:32Z</time>
      </trkpt>
      <trkpt lat="59.9492541" lon="17.715274">
        <ele>47.2418</ele>
        <time>2013-04-22T16:37:33Z</time>
      </trkpt>
      <trkpt lat="59.9492366" lon="17.7152433">
        <ele>46.7612</ele>
        <time>2013-04-22T16:37:34Z</time>
      </trkpt>
      <trkpt lat="59.9492178" lon="17.7152167">
        <ele>46.7612</ele>
        <time>2013-04-22T16:37:35Z</time>
      </trkpt>
      <trkpt lat="59.9492011" lon="17.71519">
        <ele>46.2806</ele>
        <time>2013-04-22T16:37:36Z</time>
      </trkpt>
      <trkpt lat="59.9491852" lon="17.7151608">
        <ele>45.7999</ele>
        <time>2013-04-22T16:37:37Z</time>
      </trkpt>
      <trkpt lat="59.9491677" lon="17.7151331">
        <ele>45.7999</ele>
        <time>2013-04-22T16:37:38Z</time>
      </trkpt>
      <trkpt lat="59.9491504" lon="17.7151022">
        <ele>46.2806</ele>
        <time>2013-04-22T16:37:39Z</time>
      </trkpt>
      <trkpt lat="59.9491369" lon="17.715071">
        <ele>46.2806</ele>
        <time>2013-04-22T16:37:40Z</time>
      </trkpt>
      <trkpt lat="59.9491215" lon="17.7150377">
        <ele>46.7612</ele>
        <time>2013-04-22T16:37:41Z</time>
      </trkpt>
      <trkpt lat="59.9491137" lon="17.7149964">
        <ele>47.7225</ele>
        <time>2013-04-22T16:37:42Z</time>
      </trkpt>
      <trkpt lat="59.949108" lon="17.7149564">
        <ele>48.2034</ele>
        <time>2013-04-22T16:37:43Z</time>
      </trkpt>
      <trkpt lat="59.9491091" lon="17.7149146">
        <ele>47.2418</ele>
        <time>2013-04-22T16:37:44Z</time>
      </trkpt>
      <trkpt lat="59.949108" lon="17.7148676">
        <ele>47.2418</ele>
        <time>2013-04-22T16:37:45Z</time>
      </trkpt>
      <trkpt lat="59.949109" lon="17.7148237">
        <ele>47.7225</ele>
        <time>2013-04-22T16:37:46Z</time>
      </trkpt>
      <trkpt lat="59.9491161" lon="17.714774">
        <ele>48.2034</ele>
        <time>2013-04-22T16:37:47Z</time>
      </trkpt>
      <trkpt lat="59.9491189" lon="17.7147222">
        <ele>48.2034</ele>
        <time>2013-04-22T16:37:48Z</time>
      </trkpt>
      <trkpt lat="59.9491224" lon="17.7146819">
        <ele>48.684</ele>
        <time>2013-04-22T16:37:49Z</time>
      </trkpt>
      <trkpt lat="59.9491283" lon="17.7146489">
        <ele>49.1646</ele>
        <time>2013-04-22T16:37:50Z</time>
      </trkpt>
      <trkpt lat="59.949132" lon="17.7146141">
        <ele>50.126</ele>
        <time>2013-04-22T16:37:51Z</time>
      </trkpt>
      <trkpt lat="59.9491363" lon="17.7145759">
        <ele>50.126</ele>
        <time>2013-04-22T16:37:52Z</time>
      </trkpt>
      <trkpt lat="59.9491411" lon="17.7145373">
        <ele>49.6453</ele>
        <time>2013-04-22T16:37:53Z</time>
      </trkpt>
      <trkpt lat="59.9491448" lon="17.7145052">
        <ele>48.684</ele>
        <time>2013-04-22T16:37:54Z</time>
      </trkpt>
      <trkpt lat="59.9491446" lon="17.7144671">
        <ele>48.684</ele>
        <time>2013-04-22T16:37:55Z</time>
      </trkpt>
      <trkpt lat="59.9491441" lon="17.7144313">
        <ele>48.684</ele>
        <time>2013-04-22T16:37:56Z</time>
      </trkpt>
      <trkpt lat="59.9491447" lon="17.7144007">
        <ele>47.7225</ele>
        <time>2013-04-22T16:37:57Z</time>
      </trkpt>
      <trkpt lat="59.9491422" lon="17.7143633">
        <ele>47.7225</ele>
        <time>2013-04-22T16:37:58Z</time>
      </trkpt>
      <trkpt lat="59.9491339" lon="17.7143168">
        <ele>46.2806</ele>
        <time>2013-04-22T16:37:59Z</time>
      </trkpt>
      <trkpt lat="59.949123" lon="17.7142723">
        <ele>45.7999</ele>
        <time>2013-04-22T16:38:00Z</time>
      </trkpt>
      <trkpt lat="59.9491115" lon="17.714238">
        <ele>45.7999</ele>
        <time>2013-04-22T16:38:01Z</time>
      </trkpt>
      <trkpt lat="59.9490982" lon="17.7142094">
        <ele>45.7999</ele>
        <time>2013-04-22T16:38:02Z</time>
      </trkpt>
      <trkpt lat="59.9490801" lon="17.7141811">
        <ele>45.7999</ele>
        <time>2013-04-22T16:38:03Z</time>
      </trkpt>
      <trkpt lat="59.9490557" lon="17.7141514">
        <ele>45.7999</ele>
        <time>2013-04-22T16:38:04Z</time>
      </trkpt>
      <trkpt lat="59.9490273" lon="17.7141299">
        <ele>45.3192</ele>
        <time>2013-04-22T16:38:05Z</time>
      </trkpt>
      <trkpt lat="59.9489987" lon="17.7141169">
        <ele>45.3192</ele>
        <time>2013-04-22T16:38:06Z</time>
      </trkpt>
      <trkpt lat="59.9489747" lon="17.7140956">
        <ele>44.8386</ele>
        <time>2013-04-22T16:38:07Z</time>
      </trkpt>
      <trkpt lat="59.9489509" lon="17.7140754">
        <ele>44.358</ele>
        <time>2013-04-22T16:38:08Z</time>
      </trkpt>
      <trkpt lat="59.9489278" lon="17.7140563">
        <ele>44.358</ele>
        <time>2013-04-22T16:38:09Z</time>
      </trkpt>
      <trkpt lat="59.9489101" lon="17.7140292">
        <ele>43.8773</ele>
        <time>2013-04-22T16:38:10Z</time>
      </trkpt>
      <trkpt lat="59.9488916" lon="17.7140068">
        <ele>44.358</ele>
        <time>2013-04-22T16:38:11Z</time>
      </trkpt>
      <trkpt lat="59.9488698" lon="17.7139868">
        <ele>43.8773</ele>
        <time>2013-04-22T16:38:12Z</time>
      </trkpt>
      <trkpt lat="59.9488483" lon="17.7139702">
        <ele>43.8773</ele>
        <time>2013-04-22T16:38:13Z</time>
      </trkpt>
      <trkpt lat="59.9488222" lon="17.7139536">
        <ele>44.358</ele>
        <time>2013-04-22T16:38:14Z</time>
      </trkpt>
      <trkpt lat="59.9487953" lon="17.7139374">
        <ele>43.8773</ele>
        <time>2013-04-22T16:38:15Z</time>
      </trkpt>
      <trkpt lat="59.9487688" lon="17.7139257">
        <ele>43.8773</ele>
        <time>2013-04-22T16:38:16Z</time>
      </trkpt>
      <trkpt lat="59.948748" lon="17.7139123">
        <ele>43.8773</ele>
        <time>2013-04-22T16:38:17Z</time>
      </trkpt>
      <trkpt lat="59.9487282" lon="17.7138965">
        <ele>43.8773</ele>
        <time>2013-04-22T16:38:18Z</time>
      </trkpt>
      <trkpt lat="59.9487101" lon="17.7138766">
        <ele>43.8773</ele>
        <time>2013-04-22T16:38:19Z</time>
      </trkpt>
      <trkpt lat="59.9486965" lon="17.7138592">
        <ele>44.358</ele>
        <time>2013-04-22T16:38:20Z</time>
      </trkpt>
      <trkpt lat="59.9486815" lon="17.7138489">
        <ele>43.8773</ele>
        <time>2013-04-22T16:38:21Z</time>
      </trkpt>
      <trkpt lat="59.9486623" lon="17.7138429">
        <ele>43.8773</ele>
        <time>2013-04-22T16:38:22Z</time>
      </trkpt>
      <trkpt lat="59.9486412" lon="17.7138284">
        <ele>44.8386</ele>
        <time>2013-04-22T16:38:23Z</time>
      </trkpt>
      <trkpt lat="59.9486199" lon="17.7138055">
        <ele>45.3192</ele>
        <time>2013-04-22T16:38:24Z</time>
      </trkpt>
      <trkpt lat="59.9486013" lon="17.7137853">
        <ele>45.3192</ele>
        <time>2013-04-22T16:38:25Z</time>
      </trkpt>
      <trkpt lat="59.9485827" lon="17.7137687">
        <ele>45.3192</ele>
        <time>2013-04-22T16:38:26Z</time>
      </trkpt>
      <trkpt lat="59.9485605" lon="17.7137553">
        <ele>45.3192</ele>
        <time>2013-04-22T16:38:27Z</time>
      </trkpt>
      <trkpt lat="59.9485408" lon="17.713739">
        <ele>45.3192</ele>
        <time>2013-04-22T16:38:28Z</time>
      </trkpt>
      <trkpt lat="59.9485231" lon="17.713719">
        <ele>45.3192</ele>
        <time>2013-04-22T16:38:29Z</time>
      </trkpt>
      <trkpt lat="59.9485095" lon="17.7137048">
        <ele>44.8386</ele>
        <time>2013-04-22T16:38:30Z</time>
      </trkpt>
      <trkpt lat="59.9484911" lon="17.7136917">
        <ele>44.8386</ele>
        <time>2013-04-22T16:38:31Z</time>
      </trkpt>
      <trkpt lat="59.9484694" lon="17.7136894">
        <ele>44.358</ele>
        <time>2013-04-22T16:38:32Z</time>
      </trkpt>
      <trkpt lat="59.9484482" lon="17.7136878">
        <ele>43.8773</ele>
        <time>2013-04-22T16:38:33Z</time>
      </trkpt>
      <trkpt lat="59.9484293" lon="17.7136822">
        <ele>43.8773</ele>
        <time>2013-04-22T16:38:34Z</time>
      </trkpt>
      <trkpt lat="59.9484108" lon="17.7136883">
        <ele>43.3966</ele>
        <time>2013-04-22T16:38:35Z</time>
      </trkpt>
      <trkpt lat="59.9483937" lon="17.7137023">
        <ele>43.3966</ele>
        <time>2013-04-22T16:38:36Z</time>
      </trkpt>
      <trkpt lat="59.9483849" lon="17.7137127">
        <ele>43.3966</ele>
        <time>2013-04-22T16:38:37Z</time>
      </trkpt>
      <trkpt lat="59.9483709" lon="17.7137241">
        <ele>43.3966</ele>
        <time>2013-04-22T16:38:38Z</time>
      </trkpt>
      <trkpt lat="59.9483534" lon="17.7137414">
        <ele>41.9547</ele>
        <time>2013-04-22T16:38:39Z</time>
      </trkpt>
      <trkpt lat="59.9483347" lon="17.7137601">
        <ele>41.9547</ele>
        <time>2013-04-22T16:38:40Z</time>
      </trkpt>
      <trkpt lat="59.948316" lon="17.7137808">
        <ele>41.9547</ele>
        <time>2013-04-22T16:38:41Z</time>
      </trkpt>
      <trkpt lat="59.9482973" lon="17.7137937">
        <ele>42.4354</ele>
        <time>2013-04-22T16:38:42Z</time>
      </trkpt>
      <trkpt lat="59.9482858" lon="17.7138095">
        <ele>41.9547</ele>
        <time>2013-04-22T16:38:43Z</time>
      </trkpt>
      <trkpt lat="59.9482724" lon="17.7138344">
        <ele>42.4354</ele>
        <time>2013-04-22T16:38:44Z</time>
      </trkpt>
      <trkpt lat="59.9482595" lon="17.7138649">
        <ele>41.9547</ele>
        <time>2013-04-22T16:38:45Z</time>
      </trkpt>
      <trkpt lat="59.948249" lon="17.7138993">
        <ele>41.9547</ele>
        <time>2013-04-22T16:38:46Z</time>
      </trkpt>
      <trkpt lat="59.9482291" lon="17.7139519">
        <ele>42.916</ele>
        <time>2013-04-22T16:38:47Z</time>
      </trkpt>
      <trkpt lat="59.9482149" lon="17.7139945">
        <ele>43.3966</ele>
        <time>2013-04-22T16:38:48Z</time>
      </trkpt>
      <trkpt lat="59.9482031" lon="17.7140372">
        <ele>43.3966</ele>
        <time>2013-04-22T16:38:49Z</time>
      </trkpt>
      <trkpt lat="59.9481992" lon="17.714084">
        <ele>43.8773</ele>
        <time>2013-04-22T16:38:50Z</time>
      </trkpt>
      <trkpt lat="59.948197" lon="17.7141329">
        <ele>44.358</ele>
        <time>2013-04-22T16:38:51Z</time>
      </trkpt>
      <trkpt lat="59.948198" lon="17.7141842">
        <ele>44.358</ele>
        <time>2013-04-22T16:38:52Z</time>
      </trkpt>
      <trkpt lat="59.9481989" lon="17.7142411">
        <ele>43.8773</ele>
        <time>2013-04-22T16:38:53Z</time>
      </trkpt>
      <trkpt lat="59.9481968" lon="17.7142929">
        <ele>43.3966</ele>
        <time>2013-04-22T16:38:54Z</time>
      </trkpt>
      <trkpt lat="59.9481993" lon="17.7143421">
        <ele>43.3966</ele>
        <time>2013-04-22T16:38:55Z</time>
      </trkpt>
      <trkpt lat="59.9481964" lon="17.7143886">
        <ele>42.916</ele>
        <time>2013-04-22T16:38:56Z</time>
      </trkpt>
      <trkpt lat="59.9481922" lon="17.7144399">
        <ele>41.9547</ele>
        <time>2013-04-22T16:38:57Z</time>
      </trkpt>
      <trkpt lat="59.9481782" lon="17.7144883">
        <ele>40.9934</ele>
        <time>2013-04-22T16:38:58Z</time>
      </trkpt>
      <trkpt lat="59.9481653" lon="17.7145316">
        <ele>39.0707</ele>
        <time>2013-04-22T16:38:59Z</time>
      </trkpt>
      <trkpt lat="59.9481542" lon="17.7145696">
        <ele>37.6287</ele>
        <time>2013-04-22T16:39:00Z</time>
      </trkpt>
      <trkpt lat="59.9481449" lon="17.7146157">
        <ele>37.6287</ele>
        <time>2013-04-22T16:39:01Z</time>
      </trkpt>
      <trkpt lat="59.9481433" lon="17.7146597">
        <ele>38.1094</ele>
        <time>2013-04-22T16:39:02Z</time>
      </trkpt>
      <trkpt lat="59.9481355" lon="17.7146997">
        <ele>37.1481</ele>
        <time>2013-04-22T16:39:03Z</time>
      </trkpt>
      <trkpt lat="59.9481305" lon="17.7147441">
        <ele>37.1481</ele>
        <time>2013-04-22T16:39:04Z</time>
      </trkpt>
      <trkpt lat="59.9481253" lon="17.7147829">
        <ele>37.6287</ele>
        <time>2013-04-22T16:39:05Z</time>
      </trkpt>
      <trkpt lat="59.9481197" lon="17.714823">
        <ele>37.6287</ele>
        <time>2013-04-22T16:39:06Z</time>
      </trkpt>
      <trkpt lat="59.9481179" lon="17.7148669">
        <ele>38.1094</ele>
        <time>2013-04-22T16:39:07Z</time>
      </trkpt>
      <trkpt lat="59.9481098" lon="17.7149062">
        <ele>37.6287</ele>
        <time>2013-04-22T16:39:08Z</time>
      </trkpt>
      <trkpt lat="59.948106" lon="17.7149476">
        <ele>37.6287</ele>
        <time>2013-04-22T16:39:09Z</time>
      </trkpt>
      <trkpt lat="59.9481056" lon="17.7149877">
        <ele>38.1094</ele>
        <time>2013-04-22T16:39:10Z</time>
      </trkpt>
      <trkpt lat="59.9481011" lon="17.7150291">
        <ele>38.1094</ele>
        <time>2013-04-22T16:39:11Z</time>
      </trkpt>
      <trkpt lat="59.9480925" lon="17.7150752">
        <ele>39.0707</ele>
        <time>2013-04-22T16:39:12Z</time>
      </trkpt>
      <trkpt lat="59.9480816" lon="17.7151213">
        <ele>39.0707</ele>
        <time>2013-04-22T16:39:13Z</time>
      </trkpt>
      <trkpt lat="59.9480692" lon="17.7151672">
        <ele>38.1094</ele>
        <time>2013-04-22T16:39:14Z</time>
      </trkpt>
      <trkpt lat="59.9480557" lon="17.7152093">
        <ele>38.1094</ele>
        <time>2013-04-22T16:39:15Z</time>
      </trkpt>
      <trkpt lat="59.948046" lon="17.7152457">
        <ele>38.5901</ele>
        <time>2013-04-22T16:39:16Z</time>
      </trkpt>
      <trkpt lat="59.9480395" lon="17.7152808">
        <ele>38.5901</ele>
        <time>2013-04-22T16:39:17Z</time>
      </trkpt>
      <trkpt lat="59.948029" lon="17.7153112">
        <ele>38.1094</ele>
        <time>2013-04-22T16:39:18Z</time>
      </trkpt>
      <trkpt lat="59.9480125" lon="17.7153394">
        <ele>40.0321</ele>
        <time>2013-04-22T16:39:19Z</time>
      </trkpt>
      <trkpt lat="59.9479986" lon="17.715358">
        <ele>39.5513</ele>
        <time>2013-04-22T16:39:20Z</time>
      </trkpt>
      <trkpt lat="59.9479789" lon="17.7153912">
        <ele>40.5128</ele>
        <time>2013-04-22T16:39:21Z</time>
      </trkpt>
      <trkpt lat="59.9479654" lon="17.7154139">
        <ele>40.5128</ele>
        <time>2013-04-22T16:39:22Z</time>
      </trkpt>
      <trkpt lat="59.947955" lon="17.7154321">
        <ele>40.5128</ele>
        <time>2013-04-22T16:39:23Z</time>
      </trkpt>
      <trkpt lat="59.9479431" lon="17.7154569">
        <ele>39.5513</ele>
        <time>2013-04-22T16:39:24Z</time>
      </trkpt>
      <trkpt lat="59.9479259" lon="17.7154849">
        <ele>40.0321</ele>
        <time>2013-04-22T16:39:25Z</time>
      </trkpt>
      <trkpt lat="59.9479109" lon="17.715508">
        <ele>39.5513</ele>
        <time>2013-04-22T16:39:26Z</time>
      </trkpt>
      <trkpt lat="59.9478981" lon="17.7155246">
        <ele>39.5513</ele>
        <time>2013-04-22T16:39:27Z</time>
      </trkpt>
      <trkpt lat="59.947881" lon="17.7155445">
        <ele>39.5513</ele>
        <time>2013-04-22T16:39:28Z</time>
      </trkpt>
      <trkpt lat="59.9478656" lon="17.7155633">
        <ele>39.5513</ele>
        <time>2013-04-22T16:39:29Z</time>
      </trkpt>
      <trkpt lat="59.9478506" lon="17.7155728">
        <ele>39.0707</ele>
        <time>2013-04-22T16:39:30Z</time>
      </trkpt>
      <trkpt lat="59.9478356" lon="17.7155804">
        <ele>39.0707</ele>
        <time>2013-04-22T16:39:31Z</time>
      </trkpt>
      <trkpt lat="59.9478187" lon="17.7155906">
        <ele>38.5901</ele>
        <time>2013-04-22T16:39:32Z</time>
      </trkpt>
      <trkpt lat="59.9478" lon="17.7156002">
        <ele>38.1094</ele>
        <time>2013-04-22T16:39:33Z</time>
      </trkpt>
      <trkpt lat="59.9477807" lon="17.7156097">
        <ele>37.6287</ele>
        <time>2013-04-22T16:39:34Z</time>
      </trkpt>
      <trkpt lat="59.9477601" lon="17.715618">
        <ele>37.6287</ele>
        <time>2013-04-22T16:39:35Z</time>
      </trkpt>
      <trkpt lat="59.94774" lon="17.7156212">
        <ele>37.6287</ele>
        <time>2013-04-22T16:39:36Z</time>
      </trkpt>
      <trkpt lat="59.9477222" lon="17.7156201">
        <ele>38.1094</ele>
        <time>2013-04-22T16:39:37Z</time>
      </trkpt>
      <trkpt lat="59.9477058" lon="17.7156216">
        <ele>37.6287</ele>
        <time>2013-04-22T16:39:38Z</time>
      </trkpt>
      <trkpt lat="59.9476887" lon="17.7156273">
        <ele>37.6287</ele>
        <time>2013-04-22T16:39:39Z</time>
      </trkpt>
      <trkpt lat="59.9476674" lon="17.7156232">
        <ele>37.6287</ele>
        <time>2013-04-22T16:39:40Z</time>
      </trkpt>
      <trkpt lat="59.9476473" lon="17.7156208">
        <ele>39.0707</ele>
        <time>2013-04-22T16:39:41Z</time>
      </trkpt>
      <trkpt lat="59.9476327" lon="17.7156097">
        <ele>39.0707</ele>
        <time>2013-04-22T16:39:42Z</time>
      </trkpt>
      <trkpt lat="59.947612" lon="17.7155984">
        <ele>39.0707</ele>
        <time>2013-04-22T16:39:43Z</time>
      </trkpt>
      <trkpt lat="59.9475935" lon="17.7155766">
        <ele>39.5513</ele>
        <time>2013-04-22T16:39:44Z</time>
      </trkpt>
      <trkpt lat="59.9475731" lon="17.7155635">
        <ele>40.0321</ele>
        <time>2013-04-22T16:39:45Z</time>
      </trkpt>
      <trkpt lat="59.9475522" lon="17.7155481">
        <ele>40.5128</ele>
        <time>2013-04-22T16:39:46Z</time>
      </trkpt>
      <trkpt lat="59.9475307" lon="17.715532">
        <ele>40.9934</ele>
        <time>2013-04-22T16:39:47Z</time>
      </trkpt>
      <trkpt lat="59.947511" lon="17.7155201">
        <ele>41.474</ele>
        <time>2013-04-22T16:39:48Z</time>
      </trkpt>
      <trkpt lat="59.9474971" lon="17.7155057">
        <ele>42.4354</ele>
        <time>2013-04-22T16:39:49Z</time>
      </trkpt>
      <trkpt lat="59.9474826" lon="17.7154921">
        <ele>42.916</ele>
        <time>2013-04-22T16:39:50Z</time>
      </trkpt>
      <trkpt lat="59.947467" lon="17.7154772">
        <ele>43.8773</ele>
        <time>2013-04-22T16:39:51Z</time>
      </trkpt>
      <trkpt lat="59.9474498" lon="17.715464">
        <ele>44.358</ele>
        <time>2013-04-22T16:39:52Z</time>
      </trkpt>
      <trkpt lat="59.9474302" lon="17.7154545">
        <ele>45.3192</ele>
        <time>2013-04-22T16:39:53Z</time>
      </trkpt>
      <trkpt lat="59.9474103" lon="17.7154419">
        <ele>45.7999</ele>
        <time>2013-04-22T16:39:54Z</time>
      </trkpt>
      <trkpt lat="59.9473908" lon="17.715428">
        <ele>45.7999</ele>
        <time>2013-04-22T16:39:55Z</time>
      </trkpt>
      <trkpt lat="59.9473692" lon="17.7154117">
        <ele>46.2806</ele>
        <time>2013-04-22T16:39:56Z</time>
      </trkpt>
      <trkpt lat="59.9473456" lon="17.7153963">
        <ele>46.7612</ele>
        <time>2013-04-22T16:39:57Z</time>
      </trkpt>
      <trkpt lat="59.9473223" lon="17.7153799">
        <ele>46.7612</ele>
        <time>2013-04-22T16:39:58Z</time>
      </trkpt>
      <trkpt lat="59.9472981" lon="17.7153651">
        <ele>47.2418</ele>
        <time>2013-04-22T16:39:59Z</time>
      </trkpt>
      <trkpt lat="59.9472774" lon="17.7153502">
        <ele>47.2418</ele>
        <time>2013-04-22T16:40:00Z</time>
      </trkpt>
      <trkpt lat="59.9472587" lon="17.7153309">
        <ele>47.2418</ele>
        <time>2013-04-22T16:40:01Z</time>
      </trkpt>
      <trkpt lat="59.947241" lon="17.7153093">
        <ele>47.7225</ele>
        <time>2013-04-22T16:40:02Z</time>
      </trkpt>
      <trkpt lat="59.9472195" lon="17.7152855">
        <ele>47.7225</ele>
        <time>2013-04-22T16:40:03Z</time>
      </trkpt>
      <trkpt lat="59.947201" lon="17.7152596">
        <ele>48.2034</ele>
        <time>2013-04-22T16:40:04Z</time>
      </trkpt>
      <trkpt lat="59.9471896" lon="17.715228">
        <ele>48.2034</ele>
        <time>2013-04-22T16:40:05Z</time>
      </trkpt>
      <trkpt lat="59.9471813" lon="17.7151929">
        <ele>48.2034</ele>
        <time>2013-04-22T16:40:06Z</time>
      </trkpt>
      <trkpt lat="59.9471712" lon="17.7151554">
        <ele>48.2034</ele>
        <time>2013-04-22T16:40:07Z</time>
      </trkpt>
      <trkpt lat="59.9471649" lon="17.7151191">
        <ele>49.1646</ele>
        <time>2013-04-22T16:40:08Z</time>
      </trkpt>
      <trkpt lat="59.9471603" lon="17.7150781">
        <ele>49.6453</ele>
        <time>2013-04-22T16:40:09Z</time>
      </trkpt>
      <trkpt lat="59.9471592" lon="17.7150348">
        <ele>50.6066</ele>
        <time>2013-04-22T16:40:10Z</time>
      </trkpt>
      <trkpt lat="59.947155" lon="17.7149938">
        <ele>51.0872</ele>
        <time>2013-04-22T16:40:11Z</time>
      </trkpt>
      <trkpt lat="59.9471501" lon="17.7149576">
        <ele>51.5679</ele>
        <time>2013-04-22T16:40:12Z</time>
      </trkpt>
      <trkpt lat="59.9471396" lon="17.7149198">
        <ele>51.5679</ele>
        <time>2013-04-22T16:40:13Z</time>
      </trkpt>
      <trkpt lat="59.9471332" lon="17.7148825">
        <ele>52.5292</ele>
        <time>2013-04-22T16:40:14Z</time>
      </trkpt>
      <trkpt lat="59.9471314" lon="17.7148457">
        <ele>52.5292</ele>
        <time>2013-04-22T16:40:15Z</time>
      </trkpt>
      <trkpt lat="59.9471323" lon="17.7148109">
        <ele>53.4905</ele>
        <time>2013-04-22T16:40:16Z</time>
      </trkpt>
      <trkpt lat="59.9471329" lon="17.7147696">
        <ele>53.4905</ele>
        <time>2013-04-22T16:40:17Z</time>
      </trkpt>
      <trkpt lat="59.9471337" lon="17.7147297">
        <ele>53.0098</ele>
        <time>2013-04-22T16:40:18Z</time>
      </trkpt>
      <trkpt lat="59.9471349" lon="17.7146847">
        <ele>52.5292</ele>
        <time>2013-04-22T16:40:19Z</time>
      </trkpt>
      <trkpt lat="59.9471415" lon="17.7146488">
        <ele>53.0098</ele>
        <time>2013-04-22T16:40:20Z</time>
      </trkpt>
      <trkpt lat="59.9471488" lon="17.714614">
        <ele>52.5292</ele>
        <time>2013-04-22T16:40:21Z</time>
      </trkpt>
      <trkpt lat="59.9471566" lon="17.7145711">
        <ele>52.5292</ele>
        <time>2013-04-22T16:40:22Z</time>
      </trkpt>
      <trkpt lat="59.947165" lon="17.7145283">
        <ele>52.0486</ele>
        <time>2013-04-22T16:40:23Z</time>
      </trkpt>
      <trkpt lat="59.9471798" lon="17.7144946">
        <ele>52.0486</ele>
        <time>2013-04-22T16:40:24Z</time>
      </trkpt>
      <trkpt lat="59.9471924" lon="17.714465">
        <ele>51.5679</ele>
        <time>2013-04-22T16:40:25Z</time>
      </trkpt>
      <trkpt lat="59.9472054" lon="17.7144297">
        <ele>51.5679</ele>
        <time>2013-04-22T16:40:26Z</time>
      </trkpt>
      <trkpt lat="59.9472202" lon="17.7143945">
        <ele>51.0872</ele>
        <time>2013-04-22T16:40:27Z</time>
      </trkpt>
      <trkpt lat="59.9472333" lon="17.7143645">
        <ele>51.0872</ele>
        <time>2013-04-22T16:40:28Z</time>
      </trkpt>
      <trkpt lat="59.9472437" lon="17.7143349">
        <ele>50.6066</ele>
        <time>2013-04-22T16:40:29Z</time>
      </trkpt>
      <trkpt lat="59.9472549" lon="17.7143053">
        <ele>50.126</ele>
        <time>2013-04-22T16:40:30Z</time>
      </trkpt>
      <trkpt lat="59.9472712" lon="17.7142734">
        <ele>50.126</ele>
        <time>2013-04-22T16:40:31Z</time>
      </trkpt>
      <trkpt lat="59.9472866" lon="17.7142417">
        <ele>49.1646</ele>
        <time>2013-04-22T16:40:32Z</time>
      </trkpt>
      <trkpt lat="59.9473005" lon="17.7142147">
        <ele>48.684</ele>
        <time>2013-04-22T16:40:33Z</time>
      </trkpt>
      <trkpt lat="59.9473162" lon="17.7141852">
        <ele>47.7225</ele>
        <time>2013-04-22T16:40:34Z</time>
      </trkpt>
      <trkpt lat="59.9473322" lon="17.7141521">
        <ele>47.2418</ele>
        <time>2013-04-22T16:40:35Z</time>
      </trkpt>
      <trkpt lat="59.9473456" lon="17.7141183">
        <ele>46.7612</ele>
        <time>2013-04-22T16:40:36Z</time>
      </trkpt>
      <trkpt lat="59.9473569" lon="17.714083">
        <ele>45.7999</ele>
        <time>2013-04-22T16:40:37Z</time>
      </trkpt>
      <trkpt lat="59.9473727" lon="17.7140474">
        <ele>45.7999</ele>
        <time>2013-04-22T16:40:38Z</time>
      </trkpt>
      <trkpt lat="59.9473901" lon="17.7140163">
        <ele>45.3192</ele>
        <time>2013-04-22T16:40:39Z</time>
      </trkpt>
      <trkpt lat="59.9474027" lon="17.7139844">
        <ele>44.358</ele>
        <time>2013-04-22T16:40:40Z</time>
      </trkpt>
      <trkpt lat="59.9474141" lon="17.7139496">
        <ele>43.3966</ele>
        <time>2013-04-22T16:40:41Z</time>
      </trkpt>
      <trkpt lat="59.947431" lon="17.7139159">
        <ele>43.3966</ele>
        <time>2013-04-22T16:40:42Z</time>
      </trkpt>
      <trkpt lat="59.9474437" lon="17.7138765">
        <ele>42.916</ele>
        <time>2013-04-22T16:40:43Z</time>
      </trkpt>
      <trkpt lat="59.9474545" lon="17.7138403">
        <ele>42.4354</ele>
        <time>2013-04-22T16:40:44Z</time>
      </trkpt>
      <trkpt lat="59.9474665" lon="17.713807">
        <ele>41.9547</ele>
        <time>2013-04-22T16:40:45Z</time>
      </trkpt>
      <trkpt lat="59.9474792" lon="17.7137718">
        <ele>41.474</ele>
        <time>2013-04-22T16:40:46Z</time>
      </trkpt>
      <trkpt lat="59.9474939" lon="17.7137324">
        <ele>41.474</ele>
        <time>2013-04-22T16:40:47Z</time>
      </trkpt>
      <trkpt lat="59.9475078" lon="17.7136899">
        <ele>41.9547</ele>
        <time>2013-04-22T16:40:48Z</time>
      </trkpt>
      <trkpt lat="59.9475213" lon="17.7136609">
        <ele>40.9934</ele>
        <time>2013-04-22T16:40:49Z</time>
      </trkpt>
      <trkpt lat="59.9475343" lon="17.7136297">
        <ele>40.9934</ele>
        <time>2013-04-22T16:40:50Z</time>
      </trkpt>
      <trkpt lat="59.9475483" lon="17.7135906">
        <ele>40.5128</ele>
        <time>2013-04-22T16:40:51Z</time>
      </trkpt>
      <trkpt lat="59.9475659" lon="17.7135539">
        <ele>40.0321</ele>
        <time>2013-04-22T16:40:52Z</time>
      </trkpt>
      <trkpt lat="59.9475803" lon="17.713517">
        <ele>39.5513</ele>
        <time>2013-04-22T16:40:53Z</time>
      </trkpt>
      <trkpt lat="59.9475948" lon="17.7134837">
        <ele>39.0707</ele>
        <time>2013-04-22T16:40:54Z</time>
      </trkpt>
      <trkpt lat="59.9476084" lon="17.7134512">
        <ele>39.0707</ele>
        <time>2013-04-22T16:40:55Z</time>
      </trkpt>
      <trkpt lat="59.9476227" lon="17.7134211">
        <ele>38.1094</ele>
        <time>2013-04-22T16:40:56Z</time>
      </trkpt>
      <trkpt lat="59.9476421" lon="17.7133948">
        <ele>37.6287</ele>
        <time>2013-04-22T16:40:57Z</time>
      </trkpt>
      <trkpt lat="59.9476664" lon="17.7133762">
        <ele>38.1094</ele>
        <time>2013-04-22T16:40:58Z</time>
      </trkpt>
      <trkpt lat="59.9476846" lon="17.7133574">
        <ele>38.1094</ele>
        <time>2013-04-22T16:40:59Z</time>
      </trkpt>
      <trkpt lat="59.9477007" lon="17.7133346">
        <ele>37.6287</ele>
        <time>2013-04-22T16:41:00Z</time>
      </trkpt>
      <trkpt lat="59.9477177" lon="17.7133213">
        <ele>37.6287</ele>
        <time>2013-04-22T16:41:01Z</time>
      </trkpt>
      <trkpt lat="59.9477353" lon="17.7133068">
        <ele>37.6287</ele>
        <time>2013-04-22T16:41:02Z</time>
      </trkpt>
      <trkpt lat="59.9477535" lon="17.713291">
        <ele>37.6287</ele>
        <time>2013-04-22T16:41:03Z</time>
      </trkpt>
      <trkpt lat="59.9477721" lon="17.7132819">
        <ele>37.6287</ele>
        <time>2013-04-22T16:41:04Z</time>
      </trkpt>
      <trkpt lat="59.9477916" lon="17.7132798">
        <ele>38.1094</ele>
        <time>2013-04-22T16:41:05Z</time>
      </trkpt>
      <trkpt lat="59.9478086" lon="17.7132768">
        <ele>37.1481</ele>
        <time>2013-04-22T16:41:06Z</time>
      </trkpt>
      <trkpt lat="59.9478258" lon="17.7132668">
        <ele>36.6675</ele>
        <time>2013-04-22T16:41:07Z</time>
      </trkpt>
      <trkpt lat="59.9478431" lon="17.7132591">
        <ele>36.1868</ele>
        <time>2013-04-22T16:41:08Z</time>
      </trkpt>
      <trkpt lat="59.9478589" lon="17.7132405">
        <ele>35.7061</ele>
        <time>2013-04-22T16:41:09Z</time>
      </trkpt>
      <trkpt lat="59.9478756" lon="17.7132057">
        <ele>35.7061</ele>
        <time>2013-04-22T16:41:10Z</time>
      </trkpt>
      <trkpt lat="59.9478872" lon="17.7131635">
        <ele>35.7061</ele>
        <time>2013-04-22T16:41:11Z</time>
      </trkpt>
      <trkpt lat="59.9479011" lon="17.7131269">
        <ele>36.1868</ele>
        <time>2013-04-22T16:41:12Z</time>
      </trkpt>
      <trkpt lat="59.9479135" lon="17.7130906">
        <ele>36.6675</ele>
        <time>2013-04-22T16:41:13Z</time>
      </trkpt>
      <trkpt lat="59.9479227" lon="17.7130502">
        <ele>36.6675</ele>
        <time>2013-04-22T16:41:14Z</time>
      </trkpt>
      <trkpt lat="59.9479285" lon="17.7130118">
        <ele>36.6675</ele>
        <time>2013-04-22T16:41:15Z</time>
      </trkpt>
      <trkpt lat="59.9479351" lon="17.7129726">
        <ele>35.7061</ele>
        <time>2013-04-22T16:41:16Z</time>
      </trkpt>
      <trkpt lat="59.947949" lon="17.7129401">
        <ele>36.6675</ele>
        <time>2013-04-22T16:41:17Z</time>
      </trkpt>
      <trkpt lat="59.9479672" lon="17.7129112">
        <ele>36.1868</ele>
        <time>2013-04-22T16:41:18Z</time>
      </trkpt>
      <trkpt lat="59.9479839" lon="17.7128893">
        <ele>36.6675</ele>
        <time>2013-04-22T16:41:19Z</time>
      </trkpt>
      <trkpt lat="59.9479996" lon="17.7128664">
        <ele>36.6675</ele>
        <time>2013-04-22T16:41:20Z</time>
      </trkpt>
      <trkpt lat="59.9480176" lon="17.7128359">
        <ele>37.1481</ele>
        <time>2013-04-22T16:41:21Z</time>
      </trkpt>
      <trkpt lat="59.9480322" lon="17.7128124">
        <ele>36.6675</ele>
        <time>2013-04-22T16:41:22Z</time>
      </trkpt>
      <trkpt lat="59.9480478" lon="17.7127931">
        <ele>35.7061</ele>
        <time>2013-04-22T16:41:23Z</time>
      </trkpt>
      <trkpt lat="59.9480658" lon="17.7127763">
        <ele>34.7449</ele>
        <time>2013-04-22T16:41:24Z</time>
      </trkpt>
      <trkpt lat="59.9480814" lon="17.7127528">
        <ele>33.7834</ele>
        <time>2013-04-22T16:41:25Z</time>
      </trkpt>
      <trkpt lat="59.9480979" lon="17.7127349">
        <ele>33.3029</ele>
        <time>2013-04-22T16:41:26Z</time>
      </trkpt>
      <trkpt lat="59.9481132" lon="17.7127154">
        <ele>32.8223</ele>
        <time>2013-04-22T16:41:27Z</time>
      </trkpt>
      <trkpt lat="59.9481264" lon="17.7126939">
        <ele>31.8607</ele>
        <time>2013-04-22T16:41:28Z</time>
      </trkpt>
      <trkpt lat="59.9481379" lon="17.7126638">
        <ele>30.8995</ele>
        <time>2013-04-22T16:41:29Z</time>
      </trkpt>
      <trkpt lat="59.948149" lon="17.7126332">
        <ele>30.4188</ele>
        <time>2013-04-22T16:41:30Z</time>
      </trkpt>
      <trkpt lat="59.9481633" lon="17.7126122">
        <ele>29.9381</ele>
        <time>2013-04-22T16:41:31Z</time>
      </trkpt>
      <trkpt lat="59.9481764" lon="17.7125854">
        <ele>29.4575</ele>
        <time>2013-04-22T16:41:32Z</time>
      </trkpt>
      <trkpt lat="59.9481909" lon="17.7125578">
        <ele>29.4575</ele>
        <time>2013-04-22T16:41:33Z</time>
      </trkpt>
      <trkpt lat="59.9482065" lon="17.7125301">
        <ele>29.4575</ele>
        <time>2013-04-22T16:41:34Z</time>
      </trkpt>
      <trkpt lat="59.9482222" lon="17.712506">
        <ele>29.4575</ele>
        <time>2013-04-22T16:41:35Z</time>
      </trkpt>
      <trkpt lat="59.9482374" lon="17.7124819">
        <ele>29.4575</ele>
        <time>2013-04-22T16:41:36Z</time>
      </trkpt>
      <trkpt lat="59.9482547" lon="17.7124595">
        <ele>28.9769</ele>
        <time>2013-04-22T16:41:37Z</time>
      </trkpt>
      <trkpt lat="59.9482739" lon="17.712441">
        <ele>28.4962</ele>
        <time>2013-04-22T16:41:38Z</time>
      </trkpt>
      <trkpt lat="59.9482927" lon="17.7124199">
        <ele>28.0155</ele>
        <time>2013-04-22T16:41:39Z</time>
      </trkpt>
      <trkpt lat="59.9483108" lon="17.7123995">
        <ele>28.0155</ele>
        <time>2013-04-22T16:41:40Z</time>
      </trkpt>
      <trkpt lat="59.9483236" lon="17.7123692">
        <ele>27.5349</ele>
        <time>2013-04-22T16:41:41Z</time>
      </trkpt>
      <trkpt lat="59.9483383" lon="17.7123355">
        <ele>27.0543</ele>
        <time>2013-04-22T16:41:42Z</time>
      </trkpt>
      <trkpt lat="59.9483554" lon="17.7123002">
        <ele>26.5736</ele>
        <time>2013-04-22T16:41:43Z</time>
      </trkpt>
      <trkpt lat="59.9483774" lon="17.7122645">
        <ele>28.0155</ele>
        <time>2013-04-22T16:41:44Z</time>
      </trkpt>
      <trkpt lat="59.9483904" lon="17.7122245">
        <ele>28.4962</ele>
        <time>2013-04-22T16:41:45Z</time>
      </trkpt>
      <trkpt lat="59.9484078" lon="17.7121817">
        <ele>29.4575</ele>
        <time>2013-04-22T16:41:46Z</time>
      </trkpt>
      <trkpt lat="59.9484242" lon="17.7121493">
        <ele>29.9381</ele>
        <time>2013-04-22T16:41:47Z</time>
      </trkpt>
      <trkpt lat="59.9484325" lon="17.7121156">
        <ele>29.9381</ele>
        <time>2013-04-22T16:41:48Z</time>
      </trkpt>
      <trkpt lat="59.9484394" lon="17.7120774">
        <ele>29.4575</ele>
        <time>2013-04-22T16:41:49Z</time>
      </trkpt>
      <trkpt lat="59.9484438" lon="17.7120314">
        <ele>29.4575</ele>
        <time>2013-04-22T16:41:50Z</time>
      </trkpt>
      <trkpt lat="59.9484471" lon="17.7119859">
        <ele>29.9381</ele>
        <time>2013-04-22T16:41:51Z</time>
      </trkpt>
      <trkpt lat="59.94845" lon="17.7119423">
        <ele>30.8995</ele>
        <time>2013-04-22T16:41:52Z</time>
      </trkpt>
      <trkpt lat="59.9484513" lon="17.7118977">
        <ele>30.8995</ele>
        <time>2013-04-22T16:41:53Z</time>
      </trkpt>
      <trkpt lat="59.9484525" lon="17.7118533">
        <ele>31.3801</ele>
        <time>2013-04-22T16:41:54Z</time>
      </trkpt>
      <trkpt lat="59.9484531" lon="17.711812">
        <ele>31.3801</ele>
        <time>2013-04-22T16:41:55Z</time>
      </trkpt>
      <trkpt lat="59.9484533" lon="17.7117708">
        <ele>31.3801</ele>
        <time>2013-04-22T16:41:56Z</time>
      </trkpt>
      <trkpt lat="59.9484531" lon="17.7117255">
        <ele>31.8607</ele>
        <time>2013-04-22T16:41:57Z</time>
      </trkpt>
      <trkpt lat="59.9484537" lon="17.7116777">
        <ele>31.8607</ele>
        <time>2013-04-22T16:41:58Z</time>
      </trkpt>
      <trkpt lat="59.9484605" lon="17.7116385">
        <ele>31.8607</ele>
        <time>2013-04-22T16:41:59Z</time>
      </trkpt>
      <trkpt lat="59.9484696" lon="17.7115983">
        <ele>31.8607</ele>
        <time>2013-04-22T16:42:00Z</time>
      </trkpt>
      <trkpt lat="59.9484733" lon="17.7115548">
        <ele>31.3801</ele>
        <time>2013-04-22T16:42:01Z</time>
      </trkpt>
      <trkpt lat="59.9484744" lon="17.7115101">
        <ele>30.8995</ele>
        <time>2013-04-22T16:42:02Z</time>
      </trkpt>
      <trkpt lat="59.9484791" lon="17.7114652">
        <ele>30.8995</ele>
        <time>2013-04-22T16:42:03Z</time>
      </trkpt>
      <trkpt lat="59.9484874" lon="17.7114256">
        <ele>30.4188</ele>
        <time>2013-04-22T16:42:04Z</time>
      </trkpt>
      <trkpt lat="59.9484948" lon="17.7113921">
        <ele>30.4188</ele>
        <time>2013-04-22T16:42:05Z</time>
      </trkpt>
      <trkpt lat="59.9485065" lon="17.7113588">
        <ele>30.4188</ele>
        <time>2013-04-22T16:42:06Z</time>
      </trkpt>
      <trkpt lat="59.9485168" lon="17.7113184">
        <ele>30.8995</ele>
        <time>2013-04-22T16:42:07Z</time>
      </trkpt>
      <trkpt lat="59.9485252" lon="17.7112808">
        <ele>31.3801</ele>
        <time>2013-04-22T16:42:08Z</time>
      </trkpt>
      <trkpt lat="59.9485367" lon="17.7112495">
        <ele>31.3801</ele>
        <time>2013-04-22T16:42:09Z</time>
      </trkpt>
      <trkpt lat="59.9485486" lon="17.7112175">
        <ele>31.3801</ele>
        <time>2013-04-22T16:42:10Z</time>
      </trkpt>
      <trkpt lat="59.9485647" lon="17.7111827">
        <ele>32.3416</ele>
        <time>2013-04-22T16:42:11Z</time>
      </trkpt>
      <trkpt lat="59.9485789" lon="17.7111537">
        <ele>32.8223</ele>
        <time>2013-04-22T16:42:12Z</time>
      </trkpt>
      <trkpt lat="59.9485927" lon="17.7111213">
        <ele>33.3029</ele>
        <time>2013-04-22T16:42:13Z</time>
      </trkpt>
      <trkpt lat="59.9486064" lon="17.7110868">
        <ele>33.7834</ele>
        <time>2013-04-22T16:42:14Z</time>
      </trkpt>
      <trkpt lat="59.9486195" lon="17.7110594">
        <ele>34.7449</ele>
        <time>2013-04-22T16:42:15Z</time>
      </trkpt>
      <trkpt lat="59.9486305" lon="17.7110357">
        <ele>35.2255</ele>
        <time>2013-04-22T16:42:16Z</time>
      </trkpt>
      <trkpt lat="59.9486418" lon="17.7110091">
        <ele>35.7061</ele>
        <time>2013-04-22T16:42:17Z</time>
      </trkpt>
      <trkpt lat="59.9486574" lon="17.7109865">
        <ele>35.7061</ele>
        <time>2013-04-22T16:42:18Z</time>
      </trkpt>
      <trkpt lat="59.948673" lon="17.7109627">
        <ele>36.6675</ele>
        <time>2013-04-22T16:42:19Z</time>
      </trkpt>
      <trkpt lat="59.9486854" lon="17.710929">
        <ele>37.6287</ele>
        <time>2013-04-22T16:42:20Z</time>
      </trkpt>
      <trkpt lat="59.9486971" lon="17.7108973">
        <ele>38.5901</ele>
        <time>2013-04-22T16:42:21Z</time>
      </trkpt>
      <trkpt lat="59.9487071" lon="17.7108783">
        <ele>38.5901</ele>
        <time>2013-04-22T16:42:22Z</time>
      </trkpt>
      <trkpt lat="59.9487203" lon="17.7108633">
        <ele>39.0707</ele>
        <time>2013-04-22T16:42:23Z</time>
      </trkpt>
      <trkpt lat="59.948738" lon="17.7108512">
        <ele>39.5513</ele>
        <time>2013-04-22T16:42:24Z</time>
      </trkpt>
      <trkpt lat="59.9487559" lon="17.7108432">
        <ele>40.0321</ele>
        <time>2013-04-22T16:42:25Z</time>
      </trkpt>
      <trkpt lat="59.9487713" lon="17.7108291">
        <ele>40.5128</ele>
        <time>2013-04-22T16:42:26Z</time>
      </trkpt>
      <trkpt lat="59.9487828" lon="17.7108107">
        <ele>40.5128</ele>
        <time>2013-04-22T16:42:27Z</time>
      </trkpt>
      <trkpt lat="59.9487982" lon="17.7107885">
        <ele>40.5128</ele>
        <time>2013-04-22T16:42:28Z</time>
      </trkpt>
      <trkpt lat="59.9488111" lon="17.7107612">
        <ele>40.5128</ele>
        <time>2013-04-22T16:42:29Z</time>
      </trkpt>
      <trkpt lat="59.9488196" lon="17.7107304">
        <ele>40.5128</ele>
        <time>2013-04-22T16:42:30Z</time>
      </trkpt>
      <trkpt lat="59.9488302" lon="17.710698">
        <ele>40.5128</ele>
        <time>2013-04-22T16:42:31Z</time>
      </trkpt>
      <trkpt lat="59.9488422" lon="17.710667">
        <ele>40.5128</ele>
        <time>2013-04-22T16:42:32Z</time>
      </trkpt>
      <trkpt lat="59.9488537" lon="17.7106372">
        <ele>40.9934</ele>
        <time>2013-04-22T16:42:33Z</time>
      </trkpt>
      <trkpt lat="59.9488651" lon="17.7106058">
        <ele>40.9934</ele>
        <time>2013-04-22T16:42:34Z</time>
      </trkpt>
      <trkpt lat="59.9488784" lon="17.7105736">
        <ele>41.474</ele>
        <time>2013-04-22T16:42:35Z</time>
      </trkpt>
      <trkpt lat="59.9488905" lon="17.7105429">
        <ele>41.474</ele>
        <time>2013-04-22T16:42:36Z</time>
      </trkpt>
      <trkpt lat="59.9489037" lon="17.7105105">
        <ele>41.9547</ele>
        <time>2013-04-22T16:42:37Z</time>
      </trkpt>
      <trkpt lat="59.9489154" lon="17.7104799">
        <ele>42.4354</ele>
        <time>2013-04-22T16:42:38Z</time>
      </trkpt>
      <trkpt lat="59.9489282" lon="17.7104508">
        <ele>42.916</ele>
        <time>2013-04-22T16:42:39Z</time>
      </trkpt>
      <trkpt lat="59.9489438" lon="17.7104229">
        <ele>43.3966</ele>
        <time>2013-04-22T16:42:40Z</time>
      </trkpt>
      <trkpt lat="59.9489591" lon="17.7103987">
        <ele>43.8773</ele>
        <time>2013-04-22T16:42:41Z</time>
      </trkpt>
      <trkpt lat="59.9489736" lon="17.7103747">
        <ele>44.358</ele>
        <time>2013-04-22T16:42:42Z</time>
      </trkpt>
      <trkpt lat="59.9489862" lon="17.7103477">
        <ele>44.358</ele>
        <time>2013-04-22T16:42:43Z</time>
      </trkpt>
      <trkpt lat="59.9490012" lon="17.7103266">
        <ele>44.8386</ele>
        <time>2013-04-22T16:42:44Z</time>
      </trkpt>
      <trkpt lat="59.94902" lon="17.7103115">
        <ele>45.3192</ele>
        <time>2013-04-22T16:42:45Z</time>
      </trkpt>
      <trkpt lat="59.9490379" lon="17.7102986">
        <ele>45.3192</ele>
        <time>2013-04-22T16:42:46Z</time>
      </trkpt>
      <trkpt lat="59.9490506" lon="17.7102794">
        <ele>45.7999</ele>
        <time>2013-04-22T16:42:47Z</time>
      </trkpt>
      <trkpt lat="59.9490638" lon="17.7102559">
        <ele>46.2806</ele>
        <time>2013-04-22T16:42:48Z</time>
      </trkpt>
      <trkpt lat="59.9490769" lon="17.7102321">
        <ele>46.2806</ele>
        <time>2013-04-22T16:42:49Z</time>
      </trkpt>
      <trkpt lat="59.949089" lon="17.7102064">
        <ele>46.2806</ele>
        <time>2013-04-22T16:42:50Z</time>
      </trkpt>
      <trkpt lat="59.9491001" lon="17.7101803">
        <ele>46.2806</ele>
        <time>2013-04-22T16:42:51Z</time>
      </trkpt>
      <trkpt lat="59.9491116" lon="17.710151">
        <ele>46.2806</ele>
        <time>2013-04-22T16:42:52Z</time>
      </trkpt>
      <trkpt lat="59.9491259" lon="17.710123">
        <ele>46.7612</ele>
        <time>2013-04-22T16:42:53Z</time>
      </trkpt>
      <trkpt lat="59.9491382" lon="17.7100966">
        <ele>46.7612</ele>
        <time>2013-04-22T16:42:54Z</time>
      </trkpt>
      <trkpt lat="59.9491469" lon="17.7100634">
        <ele>47.2418</ele>
        <time>2013-04-22T16:42:55Z</time>
      </trkpt>
      <trkpt lat="59.9491584" lon="17.7100335">
        <ele>46.7612</ele>
        <time>2013-04-22T16:42:56Z</time>
      </trkpt>
      <trkpt lat="59.9491749" lon="17.7100044">
        <ele>46.7612</ele>
        <time>2013-04-22T16:42:57Z</time>
      </trkpt>
      <trkpt lat="59.9491919" lon="17.7099774">
        <ele>46.7612</ele>
        <time>2013-04-22T16:42:58Z</time>
      </trkpt>
      <trkpt lat="59.9492062" lon="17.70995">
        <ele>46.7612</ele>
        <time>2013-04-22T16:42:59Z</time>
      </trkpt>
      <trkpt lat="59.9492184" lon="17.709921">
        <ele>47.2418</ele>
        <time>2013-04-22T16:43:00Z</time>
      </trkpt>
      <trkpt lat="59.9492314" lon="17.7098909">
        <ele>47.2418</ele>
        <time>2013-04-22T16:43:01Z</time>
      </trkpt>
      <trkpt lat="59.9492453" lon="17.7098574">
        <ele>47.2418</ele>
        <time>2013-04-22T16:43:02Z</time>
      </trkpt>
      <trkpt lat="59.9492581" lon="17.7098245">
        <ele>47.2418</ele>
        <time>2013-04-22T16:43:03Z</time>
      </trkpt>
      <trkpt lat="59.9492697" lon="17.7097925">
        <ele>47.2418</ele>
        <time>2013-04-22T16:43:04Z</time>
      </trkpt>
      <trkpt lat="59.94928" lon="17.7097605">
        <ele>47.2418</ele>
        <time>2013-04-22T16:43:05Z</time>
      </trkpt>
      <trkpt lat="59.9492929" lon="17.7097257">
        <ele>47.2418</ele>
        <time>2013-04-22T16:43:06Z</time>
      </trkpt>
      <trkpt lat="59.949307" lon="17.7096929">
        <ele>47.2418</ele>
        <time>2013-04-22T16:43:07Z</time>
      </trkpt>
      <trkpt lat="59.9493194" lon="17.7096614">
        <ele>46.7612</ele>
        <time>2013-04-22T16:43:08Z</time>
      </trkpt>
      <trkpt lat="59.9493304" lon="17.7096281">
        <ele>46.7612</ele>
        <time>2013-04-22T16:43:09Z</time>
      </trkpt>
      <trkpt lat="59.949343" lon="17.7095945">
        <ele>46.2806</ele>
        <time>2013-04-22T16:43:10Z</time>
      </trkpt>
      <trkpt lat="59.9493571" lon="17.7095624">
        <ele>46.2806</ele>
        <time>2013-04-22T16:43:11Z</time>
      </trkpt>
      <trkpt lat="59.9493697" lon="17.7095321">
        <ele>46.2806</ele>
        <time>2013-04-22T16:43:12Z</time>
      </trkpt>
      <trkpt lat="59.9493814" lon="17.7095008">
        <ele>45.7999</ele>
        <time>2013-04-22T16:43:13Z</time>
      </trkpt>
      <trkpt lat="59.9493944" lon="17.7094661">
        <ele>45.7999</ele>
        <time>2013-04-22T16:43:14Z</time>
      </trkpt>
      <trkpt lat="59.949408" lon="17.709432">
        <ele>45.7999</ele>
        <time>2013-04-22T16:43:15Z</time>
      </trkpt>
      <trkpt lat="59.9494189" lon="17.7093999">
        <ele>45.7999</ele>
        <time>2013-04-22T16:43:16Z</time>
      </trkpt>
      <trkpt lat="59.9494309" lon="17.7093655">
        <ele>45.7999</ele>
        <time>2013-04-22T16:43:17Z</time>
      </trkpt>
      <trkpt lat="59.9494433" lon="17.7093272">
        <ele>45.7999</ele>
        <time>2013-04-22T16:43:18Z</time>
      </trkpt>
      <trkpt lat="59.949453" lon="17.7092911">
        <ele>45.3192</ele>
        <time>2013-04-22T16:43:19Z</time>
      </trkpt>
      <trkpt lat="59.9494629" lon="17.7092544">
        <ele>45.3192</ele>
        <time>2013-04-22T16:43:20Z</time>
      </trkpt>
      <trkpt lat="59.9494744" lon="17.7092149">
        <ele>45.3192</ele>
        <time>2013-04-22T16:43:21Z</time>
      </trkpt>
      <trkpt lat="59.9494871" lon="17.7091764">
        <ele>45.3192</ele>
        <time>2013-04-22T16:43:22Z</time>
      </trkpt>
      <trkpt lat="59.9494984" lon="17.7091398">
        <ele>45.7999</ele>
        <time>2013-04-22T16:43:23Z</time>
      </trkpt>
      <trkpt lat="59.9495095" lon="17.7091026">
        <ele>45.7999</ele>
        <time>2013-04-22T16:43:24Z</time>
      </trkpt>
      <trkpt lat="59.9495224" lon="17.7090651">
        <ele>45.7999</ele>
        <time>2013-04-22T16:43:25Z</time>
      </trkpt>
      <trkpt lat="59.949535" lon="17.7090301">
        <ele>45.3192</ele>
        <time>2013-04-22T16:43:26Z</time>
      </trkpt>
      <trkpt lat="59.9495471" lon="17.7089956">
        <ele>45.3192</ele>
        <time>2013-04-22T16:43:27Z</time>
      </trkpt>
      <trkpt lat="59.9495603" lon="17.7089592">
        <ele>45.3192</ele>
        <time>2013-04-22T16:43:28Z</time>
      </trkpt>
      <trkpt lat="59.9495749" lon="17.7089259">
        <ele>45.7999</ele>
        <time>2013-04-22T16:43:29Z</time>
      </trkpt>
      <trkpt lat="59.9495862" lon="17.7088897">
        <ele>46.2806</ele>
        <time>2013-04-22T16:43:30Z</time>
      </trkpt>
      <trkpt lat="59.9495965" lon="17.7088477">
        <ele>46.2806</ele>
        <time>2013-04-22T16:43:31Z</time>
      </trkpt>
      <trkpt lat="59.9496093" lon="17.7088066">
        <ele>46.2806</ele>
        <time>2013-04-22T16:43:32Z</time>
      </trkpt>
      <trkpt lat="59.949622" lon="17.7087718">
        <ele>45.7999</ele>
        <time>2013-04-22T16:43:33Z</time>
      </trkpt>
      <trkpt lat="59.9496341" lon="17.70874">
        <ele>45.7999</ele>
        <time>2013-04-22T16:43:34Z</time>
      </trkpt>
      <trkpt lat="59.9496466" lon="17.7087081">
        <ele>45.7999</ele>
        <time>2013-04-22T16:43:35Z</time>
      </trkpt>
      <trkpt lat="59.9496592" lon="17.7086741">
        <ele>45.7999</ele>
        <time>2013-04-22T16:43:36Z</time>
      </trkpt>
      <trkpt lat="59.9496716" lon="17.7086384">
        <ele>45.3192</ele>
        <time>2013-04-22T16:43:37Z</time>
      </trkpt>
      <trkpt lat="59.9496815" lon="17.7085997">
        <ele>44.8386</ele>
        <time>2013-04-22T16:43:38Z</time>
      </trkpt>
      <trkpt lat="59.9496909" lon="17.7085667">
        <ele>44.358</ele>
        <time>2013-04-22T16:43:39Z</time>
      </trkpt>
      <trkpt lat="59.9497032" lon="17.7085317">
        <ele>44.358</ele>
        <time>2013-04-22T16:43:40Z</time>
      </trkpt>
      <trkpt lat="59.9497156" lon="17.708498">
        <ele>43.8773</ele>
        <time>2013-04-22T16:43:41Z</time>
      </trkpt>
      <trkpt lat="59.9497275" lon="17.7084674">
        <ele>43.3966</ele>
        <time>2013-04-22T16:43:42Z</time>
      </trkpt>
      <trkpt lat="59.949738" lon="17.7084308">
        <ele>43.3966</ele>
        <time>2013-04-22T16:43:43Z</time>
      </trkpt>
      <trkpt lat="59.9497499" lon="17.7083897">
        <ele>42.916</ele>
        <time>2013-04-22T16:43:44Z</time>
      </trkpt>
      <trkpt lat="59.94976" lon="17.7083468">
        <ele>42.4354</ele>
        <time>2013-04-22T16:43:45Z</time>
      </trkpt>
      <trkpt lat="59.9497695" lon="17.7083022">
        <ele>42.4354</ele>
        <time>2013-04-22T16:43:46Z</time>
      </trkpt>
      <trkpt lat="59.9497805" lon="17.7082621">
        <ele>41.9547</ele>
        <time>2013-04-22T16:43:47Z</time>
      </trkpt>
      <trkpt lat="59.9497918" lon="17.7082236">
        <ele>41.9547</ele>
        <time>2013-04-22T16:43:48Z</time>
      </trkpt>
      <trkpt lat="59.9498017" lon="17.7081896">
        <ele>41.474</ele>
        <time>2013-04-22T16:43:49Z</time>
      </trkpt>
      <trkpt lat="59.9498119" lon="17.7081556">
        <ele>40.9934</ele>
        <time>2013-04-22T16:43:50Z</time>
      </trkpt>
      <trkpt lat="59.9498255" lon="17.7081215">
        <ele>40.5128</ele>
        <time>2013-04-22T16:43:51Z</time>
      </trkpt>
      <trkpt lat="59.9498404" lon="17.7080879">
        <ele>40.0321</ele>
        <time>2013-04-22T16:43:52Z</time>
      </trkpt>
      <trkpt lat="59.9498524" lon="17.7080504">
        <ele>39.5513</ele>
        <time>2013-04-22T16:43:53Z</time>
      </trkpt>
      <trkpt lat="59.9498611" lon="17.7080143">
        <ele>39.0707</ele>
        <time>2013-04-22T16:43:54Z</time>
      </trkpt>
      <trkpt lat="59.9498715" lon="17.7079832">
        <ele>38.5901</ele>
        <time>2013-04-22T16:43:55Z</time>
      </trkpt>
      <trkpt lat="59.9498859" lon="17.7079483">
        <ele>38.5901</ele>
        <time>2013-04-22T16:43:56Z</time>
      </trkpt>
      <trkpt lat="59.9499015" lon="17.7079239">
        <ele>38.5901</ele>
        <time>2013-04-22T16:43:57Z</time>
      </trkpt>
      <trkpt lat="59.9499177" lon="17.7079122">
        <ele>38.1094</ele>
        <time>2013-04-22T16:43:58Z</time>
      </trkpt>
      <trkpt lat="59.9499373" lon="17.7078986">
        <ele>37.6287</ele>
        <time>2013-04-22T16:43:59Z</time>
      </trkpt>
      <trkpt lat="59.9499581" lon="17.7078884">
        <ele>37.6287</ele>
        <time>2013-04-22T16:44:00Z</time>
      </trkpt>
      <trkpt lat="59.9499784" lon="17.7078806">
        <ele>37.6287</ele>
        <time>2013-04-22T16:44:01Z</time>
      </trkpt>
      <trkpt lat="59.9499974" lon="17.70787">
        <ele>37.6287</ele>
        <time>2013-04-22T16:44:02Z</time>
      </trkpt>
      <trkpt lat="59.9500145" lon="17.7078499">
        <ele>37.6287</ele>
        <time>2013-04-22T16:44:03Z</time>
      </trkpt>
      <trkpt lat="59.9500299" lon="17.7078387">
        <ele>37.6287</ele>
        <time>2013-04-22T16:44:04Z</time>
      </trkpt>
      <trkpt lat="59.9500451" lon="17.7078306">
        <ele>37.6287</ele>
        <time>2013-04-22T16:44:05Z</time>
      </trkpt>
      <trkpt lat="59.9500591" lon="17.707819">
        <ele>37.1481</ele>
        <time>2013-04-22T16:44:06Z</time>
      </trkpt>
      <trkpt lat="59.9500782" lon="17.7078075">
        <ele>36.1868</ele>
        <time>2013-04-22T16:44:07Z</time>
      </trkpt>
      <trkpt lat="59.9500936" lon="17.7077936">
        <ele>36.1868</ele>
        <time>2013-04-22T16:44:08Z</time>
      </trkpt>
      <trkpt lat="59.9501073" lon="17.7077788">
        <ele>36.1868</ele>
        <time>2013-04-22T16:44:09Z</time>
      </trkpt>
      <trkpt lat="59.9501193" lon="17.7077687">
        <ele>35.2255</ele>
        <time>2013-04-22T16:44:10Z</time>
      </trkpt>
      <trkpt lat="59.9501358" lon="17.7077669">
        <ele>34.7449</ele>
        <time>2013-04-22T16:44:11Z</time>
      </trkpt>
      <trkpt lat="59.9501524" lon="17.707761">
        <ele>34.7449</ele>
        <time>2013-04-22T16:44:12Z</time>
      </trkpt>
      <trkpt lat="59.9501673" lon="17.7077543">
        <ele>33.7834</ele>
        <time>2013-04-22T16:44:13Z</time>
      </trkpt>
      <trkpt lat="59.9501829" lon="17.707736">
        <ele>33.7834</ele>
        <time>2013-04-22T16:44:14Z</time>
      </trkpt>
      <trkpt lat="59.9501988" lon="17.7077229">
        <ele>33.7834</ele>
        <time>2013-04-22T16:44:15Z</time>
      </trkpt>
      <trkpt lat="59.9502153" lon="17.7077082">
        <ele>34.2642</ele>
        <time>2013-04-22T16:44:16Z</time>
      </trkpt>
      <trkpt lat="59.9502357" lon="17.7076992">
        <ele>34.7449</ele>
        <time>2013-04-22T16:44:17Z</time>
      </trkpt>
      <trkpt lat="59.950257" lon="17.7076861">
        <ele>34.7449</ele>
        <time>2013-04-22T16:44:18Z</time>
      </trkpt>
      <trkpt lat="59.950278" lon="17.7076687">
        <ele>36.1868</ele>
        <time>2013-04-22T16:44:19Z</time>
      </trkpt>
      <trkpt lat="59.9502931" lon="17.707654">
        <ele>35.2255</ele>
        <time>2013-04-22T16:44:20Z</time>
      </trkpt>
      <trkpt lat="59.9503144" lon="17.7076537">
        <ele>34.7449</ele>
        <time>2013-04-22T16:44:21Z</time>
      </trkpt>
      <trkpt lat="59.9503381" lon="17.7076691">
        <ele>34.2642</ele>
        <time>2013-04-22T16:44:22Z</time>
      </trkpt>
      <trkpt lat="59.9503595" lon="17.7076946">
        <ele>34.2642</ele>
        <time>2013-04-22T16:44:23Z</time>
      </trkpt>
      <trkpt lat="59.9503813" lon="17.7077313">
        <ele>33.7834</ele>
        <time>2013-04-22T16:44:24Z</time>
      </trkpt>
      <trkpt lat="59.9503989" lon="17.7077676">
        <ele>33.7834</ele>
        <time>2013-04-22T16:44:25Z</time>
      </trkpt>
      <trkpt lat="59.9504134" lon="17.7078003">
        <ele>32.8223</ele>
        <time>2013-04-22T16:44:26Z</time>
      </trkpt>
      <trkpt lat="59.9504293" lon="17.7078303">
        <ele>32.3416</ele>
        <time>2013-04-22T16:44:27Z</time>
      </trkpt>
      <trkpt lat="59.9504464" lon="17.707865">
        <ele>31.8607</ele>
        <time>2013-04-22T16:44:28Z</time>
      </trkpt>
      <trkpt lat="59.9504621" lon="17.7078956">
        <ele>31.3801</ele>
        <time>2013-04-22T16:44:29Z</time>
      </trkpt>
      <trkpt lat="59.9504813" lon="17.707924">
        <ele>30.8995</ele>
        <time>2013-04-22T16:44:30Z</time>
      </trkpt>
      <trkpt lat="59.9505025" lon="17.7079547">
        <ele>30.4188</ele>
        <time>2013-04-22T16:44:31Z</time>
      </trkpt>
      <trkpt lat="59.9505222" lon="17.7079774">
        <ele>30.4188</ele>
        <time>2013-04-22T16:44:32Z</time>
      </trkpt>
      <trkpt lat="59.9505404" lon="17.707993">
        <ele>30.4188</ele>
        <time>2013-04-22T16:44:33Z</time>
      </trkpt>
      <trkpt lat="59.9505586" lon="17.7080151">
        <ele>30.4188</ele>
        <time>2013-04-22T16:44:34Z</time>
      </trkpt>
      <trkpt lat="59.95058" lon="17.7080436">
        <ele>30.4188</ele>
        <time>2013-04-22T16:44:35Z</time>
      </trkpt>
      <trkpt lat="59.9506007" lon="17.7080778">
        <ele>29.9381</ele>
        <time>2013-04-22T16:44:36Z</time>
      </trkpt>
      <trkpt lat="59.9506253" lon="17.7081083">
        <ele>30.4188</ele>
        <time>2013-04-22T16:44:37Z</time>
      </trkpt>
      <trkpt lat="59.9506477" lon="17.708135">
        <ele>30.4188</ele>
        <time>2013-04-22T16:44:38Z</time>
      </trkpt>
      <trkpt lat="59.9506668" lon="17.7081613">
        <ele>29.9381</ele>
        <time>2013-04-22T16:44:39Z</time>
      </trkpt>
      <trkpt lat="59.9506852" lon="17.7081842">
        <ele>30.4188</ele>
        <time>2013-04-22T16:44:40Z</time>
      </trkpt>
      <trkpt lat="59.9507056" lon="17.7082079">
        <ele>30.4188</ele>
        <time>2013-04-22T16:44:41Z</time>
      </trkpt>
      <trkpt lat="59.9507269" lon="17.7082376">
        <ele>29.9381</ele>
        <time>2013-04-22T16:44:42Z</time>
      </trkpt>
      <trkpt lat="59.9507495" lon="17.7082683">
        <ele>30.4188</ele>
        <time>2013-04-22T16:44:43Z</time>
      </trkpt>
      <trkpt lat="59.9507744" lon="17.7082942">
        <ele>30.4188</ele>
        <time>2013-04-22T16:44:44Z</time>
      </trkpt>
      <trkpt lat="59.9507966" lon="17.7083213">
        <ele>30.4188</ele>
        <time>2013-04-22T16:44:45Z</time>
      </trkpt>
      <trkpt lat="59.9508181" lon="17.7083546">
        <ele>30.4188</ele>
        <time>2013-04-22T16:44:46Z</time>
      </trkpt>
      <trkpt lat="59.9508367" lon="17.7083908">
        <ele>30.4188</ele>
        <time>2013-04-22T16:44:47Z</time>
      </trkpt>
      <trkpt lat="59.9508506" lon="17.7084239">
        <ele>30.4188</ele>
        <time>2013-04-22T16:44:48Z</time>
      </trkpt>
      <trkpt lat="59.9508687" lon="17.7084574">
        <ele>30.8995</ele>
        <time>2013-04-22T16:44:49Z</time>
      </trkpt>
      <trkpt lat="59.95089" lon="17.7084834">
        <ele>30.8995</ele>
        <time>2013-04-22T16:44:50Z</time>
      </trkpt>
      <trkpt lat="59.9509081" lon="17.7085079">
        <ele>31.3801</ele>
        <time>2013-04-22T16:44:51Z</time>
      </trkpt>
      <trkpt lat="59.9509257" lon="17.7085317">
        <ele>31.3801</ele>
        <time>2013-04-22T16:44:52Z</time>
      </trkpt>
      <trkpt lat="59.9509418" lon="17.708553">
        <ele>31.3801</ele>
        <time>2013-04-22T16:44:53Z</time>
      </trkpt>
      <trkpt lat="59.9509589" lon="17.7085717">
        <ele>31.3801</ele>
        <time>2013-04-22T16:44:54Z</time>
      </trkpt>
      <trkpt lat="59.9509758" lon="17.708591">
        <ele>31.8607</ele>
        <time>2013-04-22T16:44:55Z</time>
      </trkpt>
      <trkpt lat="59.9509934" lon="17.7086056">
        <ele>31.8607</ele>
        <time>2013-04-22T16:44:56Z</time>
      </trkpt>
      <trkpt lat="59.9510132" lon="17.7086169">
        <ele>31.8607</ele>
        <time>2013-04-22T16:44:57Z</time>
      </trkpt>
      <trkpt lat="59.9510346" lon="17.7086313">
        <ele>31.8607</ele>
        <time>2013-04-22T16:44:58Z</time>
      </trkpt>
      <trkpt lat="59.9510547" lon="17.708648">
        <ele>32.8223</ele>
        <time>2013-04-22T16:44:59Z</time>
      </trkpt>
      <trkpt lat="59.9510737" lon="17.708663">
        <ele>32.3416</ele>
        <time>2013-04-22T16:45:00Z</time>
      </trkpt>
      <trkpt lat="59.951093" lon="17.7086813">
        <ele>32.8223</ele>
        <time>2013-04-22T16:45:01Z</time>
      </trkpt>
      <trkpt lat="59.9511141" lon="17.7086991">
        <ele>32.8223</ele>
        <time>2013-04-22T16:45:02Z</time>
      </trkpt>
      <trkpt lat="59.951133" lon="17.7087172">
        <ele>33.3029</ele>
        <time>2013-04-22T16:45:03Z</time>
      </trkpt>
      <trkpt lat="59.9511506" lon="17.708739">
        <ele>33.7834</ele>
        <time>2013-04-22T16:45:04Z</time>
      </trkpt>
      <trkpt lat="59.9511687" lon="17.7087607">
        <ele>34.7449</ele>
        <time>2013-04-22T16:45:05Z</time>
      </trkpt>
      <trkpt lat="59.9511858" lon="17.7087761">
        <ele>34.7449</ele>
        <time>2013-04-22T16:45:06Z</time>
      </trkpt>
      <trkpt lat="59.9512049" lon="17.7087933">
        <ele>35.2255</ele>
        <time>2013-04-22T16:45:07Z</time>
      </trkpt>
      <trkpt lat="59.9512254" lon="17.7088124">
        <ele>35.7061</ele>
        <time>2013-04-22T16:45:08Z</time>
      </trkpt>
      <trkpt lat="59.9512411" lon="17.7088283">
        <ele>35.2255</ele>
        <time>2013-04-22T16:45:09Z</time>
      </trkpt>
      <trkpt lat="59.9512613" lon="17.7088472">
        <ele>36.1868</ele>
        <time>2013-04-22T16:45:10Z</time>
      </trkpt>
      <trkpt lat="59.9512795" lon="17.7088658">
        <ele>35.7061</ele>
        <time>2013-04-22T16:45:11Z</time>
      </trkpt>
      <trkpt lat="59.9513" lon="17.7088886">
        <ele>35.7061</ele>
        <time>2013-04-22T16:45:12Z</time>
      </trkpt>
      <trkpt lat="59.9513157" lon="17.7089099">
        <ele>35.2255</ele>
        <time>2013-04-22T16:45:13Z</time>
      </trkpt>
      <trkpt lat="59.9513339" lon="17.7089283">
        <ele>34.7449</ele>
        <time>2013-04-22T16:45:14Z</time>
      </trkpt>
      <trkpt lat="59.9513551" lon="17.7089508">
        <ele>35.2255</ele>
        <time>2013-04-22T16:45:15Z</time>
      </trkpt>
      <trkpt lat="59.9513747" lon="17.7089764">
        <ele>35.2255</ele>
        <time>2013-04-22T16:45:16Z</time>
      </trkpt>
      <trkpt lat="59.9513956" lon="17.7089996">
        <ele>35.7061</ele>
        <time>2013-04-22T16:45:17Z</time>
      </trkpt>
      <trkpt lat="59.9514166" lon="17.7090242">
        <ele>35.7061</ele>
        <time>2013-04-22T16:45:18Z</time>
      </trkpt>
      <trkpt lat="59.9514358" lon="17.7090526">
        <ele>35.7061</ele>
        <time>2013-04-22T16:45:19Z</time>
      </trkpt>
      <trkpt lat="59.9514532" lon="17.7090773">
        <ele>35.7061</ele>
        <time>2013-04-22T16:45:20Z</time>
      </trkpt>
      <trkpt lat="59.951473" lon="17.7090989">
        <ele>35.7061</ele>
        <time>2013-04-22T16:45:21Z</time>
      </trkpt>
      <trkpt lat="59.9514932" lon="17.7091233">
        <ele>35.7061</ele>
        <time>2013-04-22T16:45:22Z</time>
      </trkpt>
      <trkpt lat="59.9515098" lon="17.7091475">
        <ele>35.7061</ele>
        <time>2013-04-22T16:45:23Z</time>
      </trkpt>
      <trkpt lat="59.9515298" lon="17.7091666">
        <ele>35.2255</ele>
        <time>2013-04-22T16:45:24Z</time>
      </trkpt>
      <trkpt lat="59.9515502" lon="17.7091914">
        <ele>35.2255</ele>
        <time>2013-04-22T16:45:25Z</time>
      </trkpt>
      <trkpt lat="59.9515681" lon="17.7092176">
        <ele>35.2255</ele>
        <time>2013-04-22T16:45:26Z</time>
      </trkpt>
      <trkpt lat="59.9515851" lon="17.7092389">
        <ele>35.2255</ele>
        <time>2013-04-22T16:45:27Z</time>
      </trkpt>
      <trkpt lat="59.9516025" lon="17.7092647">
        <ele>35.2255</ele>
        <time>2013-04-22T16:45:28Z</time>
      </trkpt>
      <trkpt lat="59.9516196" lon="17.709292">
        <ele>35.2255</ele>
        <time>2013-04-22T16:45:29Z</time>
      </trkpt>
      <trkpt lat="59.9516378" lon="17.7093144">
        <ele>34.7449</ele>
        <time>2013-04-22T16:45:30Z</time>
      </trkpt>
      <trkpt lat="59.9516597" lon="17.7093371">
        <ele>35.2255</ele>
        <time>2013-04-22T16:45:31Z</time>
      </trkpt>
      <trkpt lat="59.9516804" lon="17.709361">
        <ele>35.2255</ele>
        <time>2013-04-22T16:45:32Z</time>
      </trkpt>
      <trkpt lat="59.951701" lon="17.7093899">
        <ele>35.7061</ele>
        <time>2013-04-22T16:45:33Z</time>
      </trkpt>
      <trkpt lat="59.9517167" lon="17.7094136">
        <ele>35.2255</ele>
        <time>2013-04-22T16:45:34Z</time>
      </trkpt>
      <trkpt lat="59.9517337" lon="17.7094328">
        <ele>34.7449</ele>
        <time>2013-04-22T16:45:35Z</time>
      </trkpt>
      <trkpt lat="59.9517543" lon="17.7094558">
        <ele>34.7449</ele>
        <time>2013-04-22T16:45:36Z</time>
      </trkpt>
      <trkpt lat="59.9517741" lon="17.7094786">
        <ele>34.7449</ele>
        <time>2013-04-22T16:45:37Z</time>
      </trkpt>
      <trkpt lat="59.9517917" lon="17.7094961">
        <ele>34.7449</ele>
        <time>2013-04-22T16:45:38Z</time>
      </trkpt>
      <trkpt lat="59.9518106" lon="17.7095138">
        <ele>35.2255</ele>
        <time>2013-04-22T16:45:39Z</time>
      </trkpt>
      <trkpt lat="59.9518302" lon="17.7095352">
        <ele>35.2255</ele>
        <time>2013-04-22T16:45:40Z</time>
      </trkpt>
      <trkpt lat="59.9518543" lon="17.709562">
        <ele>35.2255</ele>
        <time>2013-04-22T16:45:41Z</time>
      </trkpt>
      <trkpt lat="59.9518778" lon="17.7095847">
        <ele>35.2255</ele>
        <time>2013-04-22T16:45:42Z</time>
      </trkpt>
      <trkpt lat="59.9519027" lon="17.7096034">
        <ele>35.7061</ele>
        <time>2013-04-22T16:45:43Z</time>
      </trkpt>
      <trkpt lat="59.9519234" lon="17.7096208">
        <ele>36.1868</ele>
        <time>2013-04-22T16:45:44Z</time>
      </trkpt>
      <trkpt lat="59.9519439" lon="17.7096309">
        <ele>36.6675</ele>
        <time>2013-04-22T16:45:45Z</time>
      </trkpt>
      <trkpt lat="59.9519647" lon="17.7096392">
        <ele>36.6675</ele>
        <time>2013-04-22T16:45:46Z</time>
      </trkpt>
      <trkpt lat="59.9519872" lon="17.7096493">
        <ele>37.6287</ele>
        <time>2013-04-22T16:45:47Z</time>
      </trkpt>
      <trkpt lat="59.9520053" lon="17.7096599">
        <ele>37.6287</ele>
        <time>2013-04-22T16:45:48Z</time>
      </trkpt>
      <trkpt lat="59.9520219" lon="17.7096713">
        <ele>37.1481</ele>
        <time>2013-04-22T16:45:49Z</time>
      </trkpt>
      <trkpt lat="59.9520405" lon="17.709681">
        <ele>37.1481</ele>
        <time>2013-04-22T16:45:50Z</time>
      </trkpt>
      <trkpt lat="59.9520629" lon="17.709691">
        <ele>37.1481</ele>
        <time>2013-04-22T16:45:51Z</time>
      </trkpt>
      <trkpt lat="59.9520817" lon="17.7097001">
        <ele>37.1481</ele>
        <time>2013-04-22T16:45:52Z</time>
      </trkpt>
      <trkpt lat="59.9521048" lon="17.7097097">
        <ele>37.1481</ele>
        <time>2013-04-22T16:45:53Z</time>
      </trkpt>
      <trkpt lat="59.952127" lon="17.709723">
        <ele>37.1481</ele>
        <time>2013-04-22T16:45:54Z</time>
      </trkpt>
      <trkpt lat="59.9521467" lon="17.7097377">
        <ele>37.1481</ele>
        <time>2013-04-22T16:45:55Z</time>
      </trkpt>
      <trkpt lat="59.9521683" lon="17.7097509">
        <ele>37.1481</ele>
        <time>2013-04-22T16:45:56Z</time>
      </trkpt>
      <trkpt lat="59.9521912" lon="17.7097573">
        <ele>37.6287</ele>
        <time>2013-04-22T16:45:57Z</time>
      </trkpt>
      <trkpt lat="59.9522135" lon="17.7097696">
        <ele>37.6287</ele>
        <time>2013-04-22T16:45:58Z</time>
      </trkpt>
      <trkpt lat="59.9522362" lon="17.7097778">
        <ele>38.1094</ele>
        <time>2013-04-22T16:45:59Z</time>
      </trkpt>
      <trkpt lat="59.9522613" lon="17.7097853">
        <ele>38.1094</ele>
        <time>2013-04-22T16:46:00Z</time>
      </trkpt>
      <trkpt lat="59.9522849" lon="17.7097956">
        <ele>38.1094</ele>
        <time>2013-04-22T16:46:01Z</time>
      </trkpt>
      <trkpt lat="59.9523081" lon="17.7098039">
        <ele>38.5901</ele>
        <time>2013-04-22T16:46:02Z</time>
      </trkpt>
      <trkpt lat="59.9523307" lon="17.7098082">
        <ele>39.0707</ele>
        <time>2013-04-22T16:46:03Z</time>
      </trkpt>
      <trkpt lat="59.9523542" lon="17.7098192">
        <ele>39.5513</ele>
        <time>2013-04-22T16:46:04Z</time>
      </trkpt>
      <trkpt lat="59.9523721" lon="17.7098334">
        <ele>39.5513</ele>
        <time>2013-04-22T16:46:05Z</time>
      </trkpt>
      <trkpt lat="59.9523894" lon="17.7098448">
        <ele>39.5513</ele>
        <time>2013-04-22T16:46:06Z</time>
      </trkpt>
      <trkpt lat="59.9524103" lon="17.7098614">
        <ele>39.5513</ele>
        <time>2013-04-22T16:46:07Z</time>
      </trkpt>
      <trkpt lat="59.9524301" lon="17.7098832">
        <ele>39.5513</ele>
        <time>2013-04-22T16:46:08Z</time>
      </trkpt>
      <trkpt lat="59.9524492" lon="17.7099043">
        <ele>39.5513</ele>
        <time>2013-04-22T16:46:09Z</time>
      </trkpt>
      <trkpt lat="59.9524703" lon="17.7099275">
        <ele>39.5513</ele>
        <time>2013-04-22T16:46:10Z</time>
      </trkpt>
      <trkpt lat="59.9524907" lon="17.7099535">
        <ele>39.5513</ele>
        <time>2013-04-22T16:46:11Z</time>
      </trkpt>
      <trkpt lat="59.9525082" lon="17.7099811">
        <ele>40.0321</ele>
        <time>2013-04-22T16:46:12Z</time>
      </trkpt>
      <trkpt lat="59.9525244" lon="17.7100088">
        <ele>39.5513</ele>
        <time>2013-04-22T16:46:13Z</time>
      </trkpt>
      <trkpt lat="59.9525448" lon="17.7100335">
        <ele>40.0321</ele>
        <time>2013-04-22T16:46:14Z</time>
      </trkpt>
      <trkpt lat="59.9525631" lon="17.7100591">
        <ele>39.5513</ele>
        <time>2013-04-22T16:46:15Z</time>
      </trkpt>
      <trkpt lat="59.9525823" lon="17.7100811">
        <ele>39.5513</ele>
        <time>2013-04-22T16:46:16Z</time>
      </trkpt>
      <trkpt lat="59.9526008" lon="17.7100995">
        <ele>39.5513</ele>
        <time>2013-04-22T16:46:17Z</time>
      </trkpt>
      <trkpt lat="59.9526176" lon="17.7101194">
        <ele>39.5513</ele>
        <time>2013-04-22T16:46:18Z</time>
      </trkpt>
      <trkpt lat="59.9526327" lon="17.7101458">
        <ele>39.0707</ele>
        <time>2013-04-22T16:46:19Z</time>
      </trkpt>
      <trkpt lat="59.952646" lon="17.7101784">
        <ele>39.0707</ele>
        <time>2013-04-22T16:46:20Z</time>
      </trkpt>
      <trkpt lat="59.9526611" lon="17.7102086">
        <ele>38.5901</ele>
        <time>2013-04-22T16:46:21Z</time>
      </trkpt>
      <trkpt lat="59.952676" lon="17.7102426">
        <ele>38.5901</ele>
        <time>2013-04-22T16:46:22Z</time>
      </trkpt>
      <trkpt lat="59.9526885" lon="17.7102763">
        <ele>38.5901</ele>
        <time>2013-04-22T16:46:23Z</time>
      </trkpt>
      <trkpt lat="59.9527042" lon="17.7103095">
        <ele>38.5901</ele>
        <time>2013-04-22T16:46:24Z</time>
      </trkpt>
      <trkpt lat="59.9527201" lon="17.7103419">
        <ele>38.5901</ele>
        <time>2013-04-22T16:46:25Z</time>
      </trkpt>
      <trkpt lat="59.9527399" lon="17.7103737">
        <ele>38.5901</ele>
        <time>2013-04-22T16:46:26Z</time>
      </trkpt>
      <trkpt lat="59.9527621" lon="17.7104022">
        <ele>38.1094</ele>
        <time>2013-04-22T16:46:27Z</time>
      </trkpt>
      <trkpt lat="59.9527821" lon="17.7104274">
        <ele>37.6287</ele>
        <time>2013-04-22T16:46:28Z</time>
      </trkpt>
      <trkpt lat="59.9527992" lon="17.7104528">
        <ele>37.6287</ele>
        <time>2013-04-22T16:46:29Z</time>
      </trkpt>
      <trkpt lat="59.9528165" lon="17.7104747">
        <ele>37.1481</ele>
        <time>2013-04-22T16:46:30Z</time>
      </trkpt>
      <trkpt lat="59.9528342" lon="17.7105001">
        <ele>37.1481</ele>
        <time>2013-04-22T16:46:31Z</time>
      </trkpt>
      <trkpt lat="59.9528501" lon="17.7105264">
        <ele>36.6675</ele>
        <time>2013-04-22T16:46:32Z</time>
      </trkpt>
      <trkpt lat="59.9528635" lon="17.7105529">
        <ele>36.1868</ele>
        <time>2013-04-22T16:46:33Z</time>
      </trkpt>
      <trkpt lat="59.9528782" lon="17.7105835">
        <ele>35.7061</ele>
        <time>2013-04-22T16:46:34Z</time>
      </trkpt>
      <trkpt lat="59.9528943" lon="17.7106171">
        <ele>35.2255</ele>
        <time>2013-04-22T16:46:35Z</time>
      </trkpt>
      <trkpt lat="59.9529088" lon="17.7106467">
        <ele>34.7449</ele>
        <time>2013-04-22T16:46:36Z</time>
      </trkpt>
      <trkpt lat="59.9529226" lon="17.7106757">
        <ele>34.2642</ele>
        <time>2013-04-22T16:46:37Z</time>
      </trkpt>
      <trkpt lat="59.9529298" lon="17.710711">
        <ele>33.7834</ele>
        <time>2013-04-22T16:46:38Z</time>
      </trkpt>
      <trkpt lat="59.952929" lon="17.7107519">
        <ele>32.8223</ele>
        <time>2013-04-22T16:46:39Z</time>
      </trkpt>
      <trkpt lat="59.9529245" lon="17.7107953">
        <ele>33.3029</ele>
        <time>2013-04-22T16:46:40Z</time>
      </trkpt>
      <trkpt lat="59.9529165" lon="17.7108384">
        <ele>34.2642</ele>
        <time>2013-04-22T16:46:41Z</time>
      </trkpt>
      <trkpt lat="59.952904" lon="17.7108823">
        <ele>34.7449</ele>
        <time>2013-04-22T16:46:42Z</time>
      </trkpt>
      <trkpt lat="59.9528863" lon="17.7109214">
        <ele>35.2255</ele>
        <time>2013-04-22T16:46:43Z</time>
      </trkpt>
      <trkpt lat="59.9528657" lon="17.7109452">
        <ele>35.7061</ele>
        <time>2013-04-22T16:46:44Z</time>
      </trkpt>
      <trkpt lat="59.9528459" lon="17.7109594">
        <ele>35.7061</ele>
        <time>2013-04-22T16:46:45Z</time>
      </trkpt>
      <trkpt lat="59.9528284" lon="17.7109731">
        <ele>36.1868</ele>
        <time>2013-04-22T16:46:46Z</time>
      </trkpt>
      <trkpt lat="59.9528114" lon="17.7109927">
        <ele>36.6675</ele>
        <time>2013-04-22T16:46:47Z</time>
      </trkpt>
      <trkpt lat="59.9527948" lon="17.7110217">
        <ele>36.6675</ele>
        <time>2013-04-22T16:46:48Z</time>
      </trkpt>
      <trkpt lat="59.9527797" lon="17.7110493">
        <ele>37.1481</ele>
        <time>2013-04-22T16:46:49Z</time>
      </trkpt>
      <trkpt lat="59.9527635" lon="17.7110714">
        <ele>37.6287</ele>
        <time>2013-04-22T16:46:50Z</time>
      </trkpt>
      <trkpt lat="59.9527438" lon="17.7110958">
        <ele>38.1094</ele>
        <time>2013-04-22T16:46:51Z</time>
      </trkpt>
      <trkpt lat="59.952724" lon="17.7111166">
        <ele>38.1094</ele>
        <time>2013-04-22T16:46:52Z</time>
      </trkpt>
      <trkpt lat="59.9527064" lon="17.7111382">
        <ele>38.5901</ele>
        <time>2013-04-22T16:46:53Z</time>
      </trkpt>
      <trkpt lat="59.9526893" lon="17.7111631">
        <ele>38.5901</ele>
        <time>2013-04-22T16:46:54Z</time>
      </trkpt>
      <trkpt lat="59.9526714" lon="17.7111895">
        <ele>39.0707</ele>
        <time>2013-04-22T16:46:55Z</time>
      </trkpt>
      <trkpt lat="59.9526563" lon="17.7112215">
        <ele>39.0707</ele>
        <time>2013-04-22T16:46:56Z</time>
      </trkpt>
      <trkpt lat="59.9526438" lon="17.711258">
        <ele>39.0707</ele>
        <time>2013-04-22T16:46:57Z</time>
      </trkpt>
      <trkpt lat="59.9526318" lon="17.7112931">
        <ele>39.5513</ele>
        <time>2013-04-22T16:46:58Z</time>
      </trkpt>
      <trkpt lat="59.9526217" lon="17.7113268">
        <ele>39.5513</ele>
        <time>2013-04-22T16:46:59Z</time>
      </trkpt>
      <trkpt lat="59.9526138" lon="17.7113651">
        <ele>39.5513</ele>
        <time>2013-04-22T16:47:00Z</time>
      </trkpt>
      <trkpt lat="59.9526045" lon="17.7114057">
        <ele>40.0321</ele>
        <time>2013-04-22T16:47:01Z</time>
      </trkpt>
      <trkpt lat="59.9525936" lon="17.7114449">
        <ele>40.0321</ele>
        <time>2013-04-22T16:47:02Z</time>
      </trkpt>
      <trkpt lat="59.952585" lon="17.7114807">
        <ele>40.0321</ele>
        <time>2013-04-22T16:47:03Z</time>
      </trkpt>
      <trkpt lat="59.9525747" lon="17.7115171">
        <ele>40.5128</ele>
        <time>2013-04-22T16:47:04Z</time>
      </trkpt>
      <trkpt lat="59.9525622" lon="17.7115506">
        <ele>40.9934</ele>
        <time>2013-04-22T16:47:05Z</time>
      </trkpt>
      <trkpt lat="59.9525501" lon="17.7115836">
        <ele>41.474</ele>
        <time>2013-04-22T16:47:06Z</time>
      </trkpt>
      <trkpt lat="59.9525362" lon="17.7116148">
        <ele>41.9547</ele>
        <time>2013-04-22T16:47:07Z</time>
      </trkpt>
      <trkpt lat="59.9525192" lon="17.7116411">
        <ele>41.9547</ele>
        <time>2013-04-22T16:47:08Z</time>
      </trkpt>
      <trkpt lat="59.9525041" lon="17.7116672">
        <ele>41.9547</ele>
        <time>2013-04-22T16:47:09Z</time>
      </trkpt>
      <trkpt lat="59.9524904" lon="17.7116952">
        <ele>41.474</ele>
        <time>2013-04-22T16:47:10Z</time>
      </trkpt>
      <trkpt lat="59.952476" lon="17.7117252">
        <ele>41.474</ele>
        <time>2013-04-22T16:47:11Z</time>
      </trkpt>
      <trkpt lat="59.9524611" lon="17.7117609">
        <ele>41.474</ele>
        <time>2013-04-22T16:47:12Z</time>
      </trkpt>
      <trkpt lat="59.9524472" lon="17.7117989">
        <ele>41.474</ele>
        <time>2013-04-22T16:47:13Z</time>
      </trkpt>
      <trkpt lat="59.9524322" lon="17.7118346">
        <ele>41.9547</ele>
        <time>2013-04-22T16:47:14Z</time>
      </trkpt>
      <trkpt lat="59.9524135" lon="17.7118656">
        <ele>41.9547</ele>
        <time>2013-04-22T16:47:15Z</time>
      </trkpt>
      <trkpt lat="59.9523938" lon="17.7118937">
        <ele>41.9547</ele>
        <time>2013-04-22T16:47:16Z</time>
      </trkpt>
      <trkpt lat="59.9523772" lon="17.7119201">
        <ele>41.9547</ele>
        <time>2013-04-22T16:47:17Z</time>
      </trkpt>
      <trkpt lat="59.9523625" lon="17.7119476">
        <ele>42.4354</ele>
        <time>2013-04-22T16:47:18Z</time>
      </trkpt>
      <trkpt lat="59.9523488" lon="17.7119729">
        <ele>42.4354</ele>
        <time>2013-04-22T16:47:19Z</time>
      </trkpt>
      <trkpt lat="59.9523371" lon="17.7120024">
        <ele>42.4354</ele>
        <time>2013-04-22T16:47:20Z</time>
      </trkpt>
      <trkpt lat="59.9523257" lon="17.7120324">
        <ele>42.916</ele>
        <time>2013-04-22T16:47:21Z</time>
      </trkpt>
      <trkpt lat="59.9523112" lon="17.7120661">
        <ele>42.916</ele>
        <time>2013-04-22T16:47:22Z</time>
      </trkpt>
      <trkpt lat="59.9522956" lon="17.7121055">
        <ele>42.916</ele>
        <time>2013-04-22T16:47:23Z</time>
      </trkpt>
      <trkpt lat="59.9522841" lon="17.7121334">
        <ele>42.916</ele>
        <time>2013-04-22T16:47:24Z</time>
      </trkpt>
      <trkpt lat="59.9522751" lon="17.7121535">
        <ele>42.4354</ele>
        <time>2013-04-22T16:47:25Z</time>
      </trkpt>
      <trkpt lat="59.9522687" lon="17.712178">
        <ele>43.3966</ele>
        <time>2013-04-22T16:47:26Z</time>
      </trkpt>
      <trkpt lat="59.9522622" lon="17.7122064">
        <ele>43.3966</ele>
        <time>2013-04-22T16:47:27Z</time>
      </trkpt>
      <trkpt lat="59.9522544" lon="17.7122334">
        <ele>42.916</ele>
        <time>2013-04-22T16:47:28Z</time>
      </trkpt>
      <trkpt lat="59.952247" lon="17.7122619">
        <ele>42.916</ele>
        <time>2013-04-22T16:47:29Z</time>
      </trkpt>
      <trkpt lat="59.9522402" lon="17.7122904">
        <ele>42.916</ele>
        <time>2013-04-22T16:47:30Z</time>
      </trkpt>
      <trkpt lat="59.9522368" lon="17.7123213">
        <ele>42.916</ele>
        <time>2013-04-22T16:47:31Z</time>
      </trkpt>
      <trkpt lat="59.9522393" lon="17.7123582">
        <ele>42.4354</ele>
        <time>2013-04-22T16:47:32Z</time>
      </trkpt>
      <trkpt lat="59.9522462" lon="17.7123991">
        <ele>41.9547</ele>
        <time>2013-04-22T16:47:33Z</time>
      </trkpt>
      <trkpt lat="59.9522542" lon="17.7124424">
        <ele>41.474</ele>
        <time>2013-04-22T16:47:34Z</time>
      </trkpt>
      <trkpt lat="59.9522582" lon="17.7124849">
        <ele>40.9934</ele>
        <time>2013-04-22T16:47:35Z</time>
      </trkpt>
      <trkpt lat="59.9522616" lon="17.7125186">
        <ele>40.9934</ele>
        <time>2013-04-22T16:47:36Z</time>
      </trkpt>
      <trkpt lat="59.9522646" lon="17.7125505">
        <ele>40.0321</ele>
        <time>2013-04-22T16:47:37Z</time>
      </trkpt>
      <trkpt lat="59.95227" lon="17.7125883">
        <ele>39.0707</ele>
        <time>2013-04-22T16:47:38Z</time>
      </trkpt>
      <trkpt lat="59.9522802" lon="17.712626">
        <ele>39.0707</ele>
        <time>2013-04-22T16:47:39Z</time>
      </trkpt>
      <trkpt lat="59.9522913" lon="17.7126586">
        <ele>39.0707</ele>
        <time>2013-04-22T16:47:40Z</time>
      </trkpt>
      <trkpt lat="59.9523011" lon="17.7126876">
        <ele>38.5901</ele>
        <time>2013-04-22T16:47:41Z</time>
      </trkpt>
      <trkpt lat="59.9523068" lon="17.712713">
        <ele>38.5901</ele>
        <time>2013-04-22T16:47:42Z</time>
      </trkpt>
      <trkpt lat="59.95231" lon="17.7127403">
        <ele>38.5901</ele>
        <time>2013-04-22T16:47:43Z</time>
      </trkpt>
      <trkpt lat="59.9523186" lon="17.7127711">
        <ele>39.0707</ele>
        <time>2013-04-22T16:47:44Z</time>
      </trkpt>
      <trkpt lat="59.9523306" lon="17.7128043">
        <ele>39.0707</ele>
        <time>2013-04-22T16:47:45Z</time>
      </trkpt>
      <trkpt lat="59.9523451" lon="17.7128297">
        <ele>39.5513</ele>
        <time>2013-04-22T16:47:46Z</time>
      </trkpt>
      <trkpt lat="59.9523617" lon="17.7128584">
        <ele>39.5513</ele>
        <time>2013-04-22T16:47:47Z</time>
      </trkpt>
      <trkpt lat="59.9523793" lon="17.7128896">
        <ele>39.5513</ele>
        <time>2013-04-22T16:47:48Z</time>
      </trkpt>
      <trkpt lat="59.9523906" lon="17.7129169">
        <ele>39.5513</ele>
        <time>2013-04-22T16:47:49Z</time>
      </trkpt>
      <trkpt lat="59.9524008" lon="17.7129405">
        <ele>39.0707</ele>
        <time>2013-04-22T16:47:50Z</time>
      </trkpt>
      <trkpt lat="59.9524132" lon="17.7129663">
        <ele>39.0707</ele>
        <time>2013-04-22T16:47:51Z</time>
      </trkpt>
      <trkpt lat="59.9524252" lon="17.7129954">
        <ele>38.5901</ele>
        <time>2013-04-22T16:47:52Z</time>
      </trkpt>
      <trkpt lat="59.9524351" lon="17.7130274">
        <ele>38.5901</ele>
        <time>2013-04-22T16:47:53Z</time>
      </trkpt>
      <trkpt lat="59.9524413" lon="17.7130626">
        <ele>38.5901</ele>
        <time>2013-04-22T16:47:54Z</time>
      </trkpt>
      <trkpt lat="59.95245" lon="17.7130937">
        <ele>38.5901</ele>
        <time>2013-04-22T16:47:55Z</time>
      </trkpt>
      <trkpt lat="59.9524651" lon="17.7131233">
        <ele>38.1094</ele>
        <time>2013-04-22T16:47:56Z</time>
      </trkpt>
      <trkpt lat="59.9524807" lon="17.7131585">
        <ele>38.1094</ele>
        <time>2013-04-22T16:47:57Z</time>
      </trkpt>
      <trkpt lat="59.9524963" lon="17.7131882">
        <ele>37.6287</ele>
        <time>2013-04-22T16:47:58Z</time>
      </trkpt>
      <trkpt lat="59.9525144" lon="17.7132164">
        <ele>37.6287</ele>
        <time>2013-04-22T16:47:59Z</time>
      </trkpt>
      <trkpt lat="59.9525321" lon="17.7132455">
        <ele>37.6287</ele>
        <time>2013-04-22T16:48:00Z</time>
      </trkpt>
      <trkpt lat="59.9525513" lon="17.7132692">
        <ele>37.6287</ele>
        <time>2013-04-22T16:48:01Z</time>
      </trkpt>
      <trkpt lat="59.952569" lon="17.7132932">
        <ele>37.6287</ele>
        <time>2013-04-22T16:48:02Z</time>
      </trkpt>
      <trkpt lat="59.9525855" lon="17.7133212">
        <ele>37.6287</ele>
        <time>2013-04-22T16:48:03Z</time>
      </trkpt>
      <trkpt lat="59.9526036" lon="17.7133502">
        <ele>37.1481</ele>
        <time>2013-04-22T16:48:04Z</time>
      </trkpt>
      <trkpt lat="59.9526189" lon="17.7133795">
        <ele>36.6675</ele>
        <time>2013-04-22T16:48:05Z</time>
      </trkpt>
      <trkpt lat="59.9526326" lon="17.713408">
        <ele>36.6675</ele>
        <time>2013-04-22T16:48:06Z</time>
      </trkpt>
      <trkpt lat="59.9526434" lon="17.7134378">
        <ele>36.6675</ele>
        <time>2013-04-22T16:48:07Z</time>
      </trkpt>
      <trkpt lat="59.9526573" lon="17.7134702">
        <ele>36.6675</ele>
        <time>2013-04-22T16:48:08Z</time>
      </trkpt>
      <trkpt lat="59.9526718" lon="17.7135015">
        <ele>36.6675</ele>
        <time>2013-04-22T16:48:09Z</time>
      </trkpt>
      <trkpt lat="59.9526875" lon="17.7135303">
        <ele>36.6675</ele>
        <time>2013-04-22T16:48:10Z</time>
      </trkpt>
      <trkpt lat="59.9527025" lon="17.7135636">
        <ele>36.1868</ele>
        <time>2013-04-22T16:48:11Z</time>
      </trkpt>
      <trkpt lat="59.9527199" lon="17.7135987">
        <ele>37.1481</ele>
        <time>2013-04-22T16:48:12Z</time>
      </trkpt>
      <trkpt lat="59.9527326" lon="17.7136279">
        <ele>37.1481</ele>
        <time>2013-04-22T16:48:13Z</time>
      </trkpt>
      <trkpt lat="59.9527476" lon="17.7136601">
        <ele>37.6287</ele>
        <time>2013-04-22T16:48:14Z</time>
      </trkpt>
      <trkpt lat="59.9527631" lon="17.7136925">
        <ele>37.6287</ele>
        <time>2013-04-22T16:48:15Z</time>
      </trkpt>
      <trkpt lat="59.9527797" lon="17.7137227">
        <ele>37.1481</ele>
        <time>2013-04-22T16:48:16Z</time>
      </trkpt>
      <trkpt lat="59.9527998" lon="17.7137561">
        <ele>38.5901</ele>
        <time>2013-04-22T16:48:17Z</time>
      </trkpt>
      <trkpt lat="59.9528168" lon="17.7137915">
        <ele>39.0707</ele>
        <time>2013-04-22T16:48:18Z</time>
      </trkpt>
      <trkpt lat="59.952831" lon="17.7138216">
        <ele>39.0707</ele>
        <time>2013-04-22T16:48:19Z</time>
      </trkpt>
      <trkpt lat="59.952846" lon="17.7138475">
        <ele>39.0707</ele>
        <time>2013-04-22T16:48:20Z</time>
      </trkpt>
      <trkpt lat="59.9528634" lon="17.7138724">
        <ele>39.0707</ele>
        <time>2013-04-22T16:48:21Z</time>
      </trkpt>
      <trkpt lat="59.9528828" lon="17.7138903">
        <ele>39.5513</ele>
        <time>2013-04-22T16:48:22Z</time>
      </trkpt>
      <trkpt lat="59.9529034" lon="17.7138956">
        <ele>40.0321</ele>
        <time>2013-04-22T16:48:23Z</time>
      </trkpt>
      <trkpt lat="59.9529214" lon="17.7138983">
        <ele>39.5513</ele>
        <time>2013-04-22T16:48:24Z</time>
      </trkpt>
      <trkpt lat="59.9529407" lon="17.713901">
        <ele>39.5513</ele>
        <time>2013-04-22T16:48:25Z</time>
      </trkpt>
      <trkpt lat="59.9529615" lon="17.7138987">
        <ele>40.0321</ele>
        <time>2013-04-22T16:48:26Z</time>
      </trkpt>
      <trkpt lat="59.9529826" lon="17.7138869">
        <ele>40.0321</ele>
        <time>2013-04-22T16:48:27Z</time>
      </trkpt>
      <trkpt lat="59.9530024" lon="17.7138702">
        <ele>40.0321</ele>
        <time>2013-04-22T16:48:28Z</time>
      </trkpt>
      <trkpt lat="59.9530216" lon="17.7138496">
        <ele>40.0321</ele>
        <time>2013-04-22T16:48:29Z</time>
      </trkpt>
      <trkpt lat="59.9530439" lon="17.7138287">
        <ele>40.0321</ele>
        <time>2013-04-22T16:48:30Z</time>
      </trkpt>
      <trkpt lat="59.9530647" lon="17.7138013">
        <ele>39.5513</ele>
        <time>2013-04-22T16:48:31Z</time>
      </trkpt>
      <trkpt lat="59.9530838" lon="17.7137768">
        <ele>39.5513</ele>
        <time>2013-04-22T16:48:32Z</time>
      </trkpt>
      <trkpt lat="59.9531027" lon="17.7137559">
        <ele>39.5513</ele>
        <time>2013-04-22T16:48:33Z</time>
      </trkpt>
      <trkpt lat="59.9531215" lon="17.7137294">
        <ele>39.5513</ele>
        <time>2013-04-22T16:48:34Z</time>
      </trkpt>
      <trkpt lat="59.9531402" lon="17.7137003">
        <ele>40.0321</ele>
        <time>2013-04-22T16:48:35Z</time>
      </trkpt>
      <trkpt lat="59.9531581" lon="17.7136727">
        <ele>40.0321</ele>
        <time>2013-04-22T16:48:36Z</time>
      </trkpt>
      <trkpt lat="59.9531754" lon="17.7136388">
        <ele>40.0321</ele>
        <time>2013-04-22T16:48:37Z</time>
      </trkpt>
      <trkpt lat="59.9531946" lon="17.7136015">
        <ele>40.0321</ele>
        <time>2013-04-22T16:48:38Z</time>
      </trkpt>
      <trkpt lat="59.9532136" lon="17.7135689">
        <ele>40.0321</ele>
        <time>2013-04-22T16:48:39Z</time>
      </trkpt>
      <trkpt lat="59.9532309" lon="17.7135414">
        <ele>40.0321</ele>
        <time>2013-04-22T16:48:40Z</time>
      </trkpt>
      <trkpt lat="59.9532501" lon="17.7135149">
        <ele>40.0321</ele>
        <time>2013-04-22T16:48:41Z</time>
      </trkpt>
      <trkpt lat="59.9532659" lon="17.7134896">
        <ele>40.5128</ele>
        <time>2013-04-22T16:48:42Z</time>
      </trkpt>
      <trkpt lat="59.9532827" lon="17.7134626">
        <ele>40.5128</ele>
        <time>2013-04-22T16:48:43Z</time>
      </trkpt>
      <trkpt lat="59.9532999" lon="17.7134341">
        <ele>40.5128</ele>
        <time>2013-04-22T16:48:44Z</time>
      </trkpt>
      <trkpt lat="59.9533163" lon="17.7134055">
        <ele>40.5128</ele>
        <time>2013-04-22T16:48:45Z</time>
      </trkpt>
      <trkpt lat="59.9533341" lon="17.7133731">
        <ele>40.5128</ele>
        <time>2013-04-22T16:48:46Z</time>
      </trkpt>
      <trkpt lat="59.9533536" lon="17.7133402">
        <ele>40.9934</ele>
        <time>2013-04-22T16:48:47Z</time>
      </trkpt>
      <trkpt lat="59.9533722" lon="17.7133089">
        <ele>40.9934</ele>
        <time>2013-04-22T16:48:48Z</time>
      </trkpt>
      <trkpt lat="59.9533899" lon="17.7132777">
        <ele>40.5128</ele>
        <time>2013-04-22T16:48:49Z</time>
      </trkpt>
      <trkpt lat="59.9534085" lon="17.7132423">
        <ele>40.5128</ele>
        <time>2013-04-22T16:48:50Z</time>
      </trkpt>
      <trkpt lat="59.9534292" lon="17.7132079">
        <ele>40.5128</ele>
        <time>2013-04-22T16:48:51Z</time>
      </trkpt>
      <trkpt lat="59.9534505" lon="17.7131763">
        <ele>40.0321</ele>
        <time>2013-04-22T16:48:52Z</time>
      </trkpt>
      <trkpt lat="59.9534712" lon="17.7131438">
        <ele>40.0321</ele>
        <time>2013-04-22T16:48:53Z</time>
      </trkpt>
      <trkpt lat="59.9534919" lon="17.7131128">
        <ele>40.0321</ele>
        <time>2013-04-22T16:48:54Z</time>
      </trkpt>
      <trkpt lat="59.9535122" lon="17.7130825">
        <ele>40.5128</ele>
        <time>2013-04-22T16:48:55Z</time>
      </trkpt>
      <trkpt lat="59.9535301" lon="17.7130528">
        <ele>40.5128</ele>
        <time>2013-04-22T16:48:56Z</time>
      </trkpt>
      <trkpt lat="59.9535505" lon="17.7130266">
        <ele>40.0321</ele>
        <time>2013-04-22T16:48:57Z</time>
      </trkpt>
      <trkpt lat="59.9535729" lon="17.7130121">
        <ele>40.0321</ele>
        <time>2013-04-22T16:48:58Z</time>
      </trkpt>
      <trkpt lat="59.9535946" lon="17.7130037">
        <ele>39.5513</ele>
        <time>2013-04-22T16:48:59Z</time>
      </trkpt>
      <trkpt lat="59.9536131" lon="17.7129963">
        <ele>39.0707</ele>
        <time>2013-04-22T16:49:00Z</time>
      </trkpt>
      <trkpt lat="59.9536328" lon="17.7129993">
        <ele>38.5901</ele>
        <time>2013-04-22T16:49:01Z</time>
      </trkpt>
    </trkseg>
  </trk>
</gpx>